<?xml version="1.0" encoding="UTF-8" standalone="no" ?>
<gpx xmlns="http://www.topografix.com/GPX/1/1" xmlns:xsi="http://www.w3.org/2001/XMLSchema-instance" xsi:schemaLocation="http://www.topografix.com/GPX/1/1 http://www.topografix.com/GPX/1/1/gpx.xsd" version="1.1" creator="VisuGPX - https://www.visugpx.com">
  <metadata>
    <name>GR34 : d\'Erquy à Pléneuf</name>
    <desc><![CDATA[sur le GR34 le 27/09/2013]]></desc>
  </metadata>
  <trk>
    <name><![CDATA[GR34 : d\'Erquy à Pléneuf_1]]></name>
    <trkseg>
      <trkpt lat="48.63028" lon="-2.46786">
        <ele>14.203451</ele>
        <time>2013-09-27T13:16:45Z</time>
      </trkpt>
      <trkpt lat="48.63029" lon="-2.46786">
        <ele>14.102587</ele>
        <time>2013-09-27T13:16:46Z</time>
      </trkpt>
      <trkpt lat="48.63016" lon="-2.46801">
        <ele>14.1</ele>
        <time>2013-09-27T13:17:02Z</time>
      </trkpt>
      <trkpt lat="48.63009" lon="-2.46807">
        <ele>14.3</ele>
        <time>2013-09-27T13:17:08Z</time>
      </trkpt>
      <trkpt lat="48.63003" lon="-2.46814">
        <ele>14.5</ele>
        <time>2013-09-27T13:17:14Z</time>
      </trkpt>
      <trkpt lat="48.62997" lon="-2.46823">
        <ele>14.6</ele>
        <time>2013-09-27T13:17:21Z</time>
      </trkpt>
      <trkpt lat="48.62991" lon="-2.46833">
        <ele>14.6</ele>
        <time>2013-09-27T13:17:28Z</time>
      </trkpt>
      <trkpt lat="48.62985" lon="-2.46841">
        <ele>14.7</ele>
        <time>2013-09-27T13:17:34Z</time>
      </trkpt>
      <trkpt lat="48.62979" lon="-2.46848">
        <ele>14.7</ele>
        <time>2013-09-27T13:17:40Z</time>
      </trkpt>
      <trkpt lat="48.62973" lon="-2.46856">
        <ele>14.6</ele>
        <time>2013-09-27T13:17:46Z</time>
      </trkpt>
      <trkpt lat="48.62972" lon="-2.46858">
        <ele>14.6</ele>
        <time>2013-09-27T13:17:47Z</time>
      </trkpt>
      <trkpt lat="48.62962" lon="-2.46873">
        <ele>14.4</ele>
        <time>2013-09-27T13:17:58Z</time>
      </trkpt>
      <trkpt lat="48.62957" lon="-2.46881">
        <ele>14.3</ele>
        <time>2013-09-27T13:18:04Z</time>
      </trkpt>
      <trkpt lat="48.62952" lon="-2.4689">
        <ele>14.2</ele>
        <time>2013-09-27T13:18:10Z</time>
      </trkpt>
      <trkpt lat="48.62947" lon="-2.469">
        <ele>14.2</ele>
        <time>2013-09-27T13:18:16Z</time>
      </trkpt>
      <trkpt lat="48.62942" lon="-2.46909">
        <ele>14.1</ele>
        <time>2013-09-27T13:18:22Z</time>
      </trkpt>
      <trkpt lat="48.62937" lon="-2.46919">
        <ele>14</ele>
        <time>2013-09-27T13:18:28Z</time>
      </trkpt>
      <trkpt lat="48.62932" lon="-2.46929">
        <ele>13.9</ele>
        <time>2013-09-27T13:18:34Z</time>
      </trkpt>
      <trkpt lat="48.62927" lon="-2.46939">
        <ele>13.9</ele>
        <time>2013-09-27T13:18:41Z</time>
      </trkpt>
      <trkpt lat="48.62922" lon="-2.46949">
        <ele>13.9</ele>
        <time>2013-09-27T13:18:47Z</time>
      </trkpt>
      <trkpt lat="48.62921" lon="-2.4695">
        <ele>13.9</ele>
        <time>2013-09-27T13:18:48Z</time>
      </trkpt>
      <trkpt lat="48.62913" lon="-2.46968">
        <ele>13.9</ele>
        <time>2013-09-27T13:18:59Z</time>
      </trkpt>
      <trkpt lat="48.62909" lon="-2.46978">
        <ele>13.8</ele>
        <time>2013-09-27T13:19:05Z</time>
      </trkpt>
      <trkpt lat="48.62905" lon="-2.46988">
        <ele>13.6</ele>
        <time>2013-09-27T13:19:11Z</time>
      </trkpt>
      <trkpt lat="48.62902" lon="-2.46999">
        <ele>13.5</ele>
        <time>2013-09-27T13:19:17Z</time>
      </trkpt>
      <trkpt lat="48.62899" lon="-2.4701">
        <ele>13.3</ele>
        <time>2013-09-27T13:19:23Z</time>
      </trkpt>
      <trkpt lat="48.62896" lon="-2.47021">
        <ele>13.2</ele>
        <time>2013-09-27T13:19:29Z</time>
      </trkpt>
      <trkpt lat="48.62893" lon="-2.47032">
        <ele>13.1</ele>
        <time>2013-09-27T13:19:35Z</time>
      </trkpt>
      <trkpt lat="48.6289" lon="-2.47045">
        <ele>12.9</ele>
        <time>2013-09-27T13:19:42Z</time>
      </trkpt>
      <trkpt lat="48.62887" lon="-2.47058">
        <ele>12.8</ele>
        <time>2013-09-27T13:19:49Z</time>
      </trkpt>
      <trkpt lat="48.62887" lon="-2.4706">
        <ele>12.8</ele>
        <time>2013-09-27T13:19:50Z</time>
      </trkpt>
      <trkpt lat="48.62882" lon="-2.47083">
        <ele>12.5</ele>
        <time>2013-09-27T13:20:03Z</time>
      </trkpt>
      <trkpt lat="48.6288" lon="-2.47096">
        <ele>12.4</ele>
        <time>2013-09-27T13:20:22Z</time>
      </trkpt>
      <trkpt lat="48.62872" lon="-2.47096">
        <ele>12.2</ele>
        <time>2013-09-27T13:20:29Z</time>
      </trkpt>
      <trkpt lat="48.62863" lon="-2.47101">
        <ele>12.1</ele>
        <time>2013-09-27T13:20:37Z</time>
      </trkpt>
      <trkpt lat="48.62862" lon="-2.47113">
        <ele>12.1</ele>
        <time>2013-09-27T13:20:48Z</time>
      </trkpt>
      <trkpt lat="48.62864" lon="-2.47126">
        <ele>12.2</ele>
        <time>2013-09-27T13:20:57Z</time>
      </trkpt>
      <trkpt lat="48.62864" lon="-2.47127">
        <ele>12.2</ele>
        <time>2013-09-27T13:20:58Z</time>
      </trkpt>
      <trkpt lat="48.62858" lon="-2.47132">
        <ele>12.7</ele>
        <time>2013-09-27T13:21:19Z</time>
      </trkpt>
      <trkpt lat="48.62854" lon="-2.47121">
        <ele>12.9</ele>
        <time>2013-09-27T13:21:26Z</time>
      </trkpt>
      <trkpt lat="48.62849" lon="-2.4711">
        <ele>13.2</ele>
        <time>2013-09-27T13:21:34Z</time>
      </trkpt>
      <trkpt lat="48.62844" lon="-2.47101">
        <ele>13.4</ele>
        <time>2013-09-27T13:21:41Z</time>
      </trkpt>
      <trkpt lat="48.62839" lon="-2.47089">
        <ele>13.7</ele>
        <time>2013-09-27T13:21:49Z</time>
      </trkpt>
      <trkpt lat="48.62836" lon="-2.47079">
        <ele>14</ele>
        <time>2013-09-27T13:21:56Z</time>
      </trkpt>
      <trkpt lat="48.62832" lon="-2.47066">
        <ele>14.5</ele>
        <time>2013-09-27T13:22:04Z</time>
      </trkpt>
      <trkpt lat="48.62832" lon="-2.47065">
        <ele>14.5</ele>
        <time>2013-09-27T13:22:05Z</time>
      </trkpt>
      <trkpt lat="48.62821" lon="-2.47047">
        <ele>15.5</ele>
        <time>2013-09-27T13:22:20Z</time>
      </trkpt>
      <trkpt lat="48.62812" lon="-2.47046">
        <ele>16.5</ele>
        <time>2013-09-27T13:22:35Z</time>
      </trkpt>
      <trkpt lat="48.62811" lon="-2.47058">
        <ele>16.9</ele>
        <time>2013-09-27T13:22:41Z</time>
      </trkpt>
      <trkpt lat="48.62808" lon="-2.4707">
        <ele>17.6</ele>
        <time>2013-09-27T13:22:48Z</time>
      </trkpt>
      <trkpt lat="48.62804" lon="-2.47082">
        <ele>18.3</ele>
        <time>2013-09-27T13:22:55Z</time>
      </trkpt>
      <trkpt lat="48.628" lon="-2.47094">
        <ele>18.9</ele>
        <time>2013-09-27T13:23:02Z</time>
      </trkpt>
      <trkpt lat="48.62797" lon="-2.47105">
        <ele>19.3</ele>
        <time>2013-09-27T13:23:09Z</time>
      </trkpt>
      <trkpt lat="48.62796" lon="-2.47107">
        <ele>19.3</ele>
        <time>2013-09-27T13:23:10Z</time>
      </trkpt>
      <trkpt lat="48.62791" lon="-2.47129">
        <ele>19.9</ele>
        <time>2013-09-27T13:23:24Z</time>
      </trkpt>
      <trkpt lat="48.6279" lon="-2.47142">
        <ele>20</ele>
        <time>2013-09-27T13:23:31Z</time>
      </trkpt>
      <trkpt lat="48.62788" lon="-2.47154">
        <ele>20.1</ele>
        <time>2013-09-27T13:23:38Z</time>
      </trkpt>
      <trkpt lat="48.62785" lon="-2.47166">
        <ele>20.2</ele>
        <time>2013-09-27T13:23:45Z</time>
      </trkpt>
      <trkpt lat="48.62783" lon="-2.47178">
        <ele>20.3</ele>
        <time>2013-09-27T13:23:52Z</time>
      </trkpt>
      <trkpt lat="48.62779" lon="-2.4719">
        <ele>20.5</ele>
        <time>2013-09-27T13:24:00Z</time>
      </trkpt>
      <trkpt lat="48.62777" lon="-2.47201">
        <ele>20.7</ele>
        <time>2013-09-27T13:24:07Z</time>
      </trkpt>
      <trkpt lat="48.62773" lon="-2.47212">
        <ele>20.9</ele>
        <time>2013-09-27T13:24:14Z</time>
      </trkpt>
      <trkpt lat="48.62772" lon="-2.47214">
        <ele>21</ele>
        <time>2013-09-27T13:24:15Z</time>
      </trkpt>
      <trkpt lat="48.62761" lon="-2.47232">
        <ele>21.7</ele>
        <time>2013-09-27T13:24:30Z</time>
      </trkpt>
      <trkpt lat="48.62755" lon="-2.4724">
        <ele>22.3</ele>
        <time>2013-09-27T13:24:38Z</time>
      </trkpt>
      <trkpt lat="48.62747" lon="-2.47245">
        <ele>24.5</ele>
        <time>2013-09-27T13:24:47Z</time>
      </trkpt>
      <trkpt lat="48.62739" lon="-2.47249">
        <ele>28.8</ele>
        <time>2013-09-27T13:24:54Z</time>
      </trkpt>
      <trkpt lat="48.62731" lon="-2.47251">
        <ele>29.8</ele>
        <time>2013-09-27T13:25:00Z</time>
      </trkpt>
      <trkpt lat="48.62723" lon="-2.47254">
        <ele>30.3</ele>
        <time>2013-09-27T13:25:07Z</time>
      </trkpt>
      <trkpt lat="48.62714" lon="-2.47257">
        <ele>31.1</ele>
        <time>2013-09-27T13:25:14Z</time>
      </trkpt>
      <trkpt lat="48.62706" lon="-2.47259">
        <ele>31.7</ele>
        <time>2013-09-27T13:25:21Z</time>
      </trkpt>
      <trkpt lat="48.62705" lon="-2.4726">
        <ele>31.8</ele>
        <time>2013-09-27T13:25:22Z</time>
      </trkpt>
      <trkpt lat="48.6269" lon="-2.47265">
        <ele>32.3</ele>
        <time>2013-09-27T13:25:35Z</time>
      </trkpt>
      <trkpt lat="48.62681" lon="-2.47268">
        <ele>32.4</ele>
        <time>2013-09-27T13:25:43Z</time>
      </trkpt>
      <trkpt lat="48.62674" lon="-2.47275">
        <ele>32.2</ele>
        <time>2013-09-27T13:25:52Z</time>
      </trkpt>
      <trkpt lat="48.62665" lon="-2.47279">
        <ele>33.4</ele>
        <time>2013-09-27T13:26:01Z</time>
      </trkpt>
      <trkpt lat="48.62657" lon="-2.47283">
        <ele>32.1</ele>
        <time>2013-09-27T13:26:10Z</time>
      </trkpt>
      <trkpt lat="48.62648" lon="-2.47285">
        <ele>31.4</ele>
        <time>2013-09-27T13:26:18Z</time>
      </trkpt>
      <trkpt lat="48.62641" lon="-2.47288">
        <ele>31</ele>
        <time>2013-09-27T13:26:25Z</time>
      </trkpt>
      <trkpt lat="48.6264" lon="-2.47288">
        <ele>30.8</ele>
        <time>2013-09-27T13:26:26Z</time>
      </trkpt>
      <trkpt lat="48.62625" lon="-2.47294">
        <ele>29.2</ele>
        <time>2013-09-27T13:26:39Z</time>
      </trkpt>
      <trkpt lat="48.62617" lon="-2.47299">
        <ele>29.4</ele>
        <time>2013-09-27T13:26:46Z</time>
      </trkpt>
      <trkpt lat="48.6261" lon="-2.47304">
        <ele>28.1</ele>
        <time>2013-09-27T13:26:53Z</time>
      </trkpt>
      <trkpt lat="48.62602" lon="-2.4731">
        <ele>27.9</ele>
        <time>2013-09-27T13:27:00Z</time>
      </trkpt>
      <trkpt lat="48.62595" lon="-2.47316">
        <ele>26.7</ele>
        <time>2013-09-27T13:27:07Z</time>
      </trkpt>
      <trkpt lat="48.62588" lon="-2.47323">
        <ele>25.5</ele>
        <time>2013-09-27T13:27:14Z</time>
      </trkpt>
      <trkpt lat="48.62582" lon="-2.47331">
        <ele>24.5</ele>
        <time>2013-09-27T13:27:21Z</time>
      </trkpt>
      <trkpt lat="48.62576" lon="-2.47339">
        <ele>24.9</ele>
        <time>2013-09-27T13:27:28Z</time>
      </trkpt>
      <trkpt lat="48.62575" lon="-2.4734">
        <ele>24.6</ele>
        <time>2013-09-27T13:27:29Z</time>
      </trkpt>
      <trkpt lat="48.62564" lon="-2.47356">
        <ele>22.9</ele>
        <time>2013-09-27T13:27:42Z</time>
      </trkpt>
      <trkpt lat="48.62556" lon="-2.47358">
        <ele>21.4</ele>
        <time>2013-09-27T13:28:08Z</time>
      </trkpt>
      <trkpt lat="48.6255" lon="-2.4735">
        <ele>22.3</ele>
        <time>2013-09-27T13:28:16Z</time>
      </trkpt>
      <trkpt lat="48.62546" lon="-2.47339">
        <ele>20.7</ele>
        <time>2013-09-27T13:28:23Z</time>
      </trkpt>
      <trkpt lat="48.62546" lon="-2.47351">
        <ele>18.5</ele>
        <time>2013-09-27T13:30:28Z</time>
      </trkpt>
      <trkpt lat="48.62546" lon="-2.47353">
        <ele>18.1</ele>
        <time>2013-09-27T13:30:29Z</time>
      </trkpt>
      <trkpt lat="48.62554" lon="-2.47373">
        <ele>17.3</ele>
        <time>2013-09-27T13:30:41Z</time>
      </trkpt>
      <trkpt lat="48.62558" lon="-2.47384">
        <ele>16.8</ele>
        <time>2013-09-27T13:30:48Z</time>
      </trkpt>
      <trkpt lat="48.6255" lon="-2.4738">
        <ele>15</ele>
        <time>2013-09-27T13:30:59Z</time>
      </trkpt>
      <trkpt lat="48.62546" lon="-2.4737">
        <ele>15.1</ele>
        <time>2013-09-27T13:31:04Z</time>
      </trkpt>
      <trkpt lat="48.62542" lon="-2.4736">
        <ele>14.3</ele>
        <time>2013-09-27T13:31:10Z</time>
      </trkpt>
      <trkpt lat="48.62537" lon="-2.47349">
        <ele>13.2</ele>
        <time>2013-09-27T13:31:17Z</time>
      </trkpt>
      <trkpt lat="48.62531" lon="-2.47341">
        <ele>12</ele>
        <time>2013-09-27T13:31:24Z</time>
      </trkpt>
      <trkpt lat="48.62528" lon="-2.47329">
        <ele>11.4</ele>
        <time>2013-09-27T13:31:32Z</time>
      </trkpt>
      <trkpt lat="48.62529" lon="-2.47328">
        <ele>11.3</ele>
        <time>2013-09-27T13:31:33Z</time>
      </trkpt>
      <trkpt lat="48.62536" lon="-2.47307">
        <ele>8.4</ele>
        <time>2013-09-27T13:31:46Z</time>
      </trkpt>
      <trkpt lat="48.6253" lon="-2.47297">
        <ele>6.8</ele>
        <time>2013-09-27T13:31:57Z</time>
      </trkpt>
      <trkpt lat="48.62522" lon="-2.47297">
        <ele>6.6</ele>
        <time>2013-09-27T13:32:04Z</time>
      </trkpt>
      <trkpt lat="48.62513" lon="-2.47299">
        <ele>6.9</ele>
        <time>2013-09-27T13:32:12Z</time>
      </trkpt>
      <trkpt lat="48.62505" lon="-2.47304">
        <ele>6.9</ele>
        <time>2013-09-27T13:32:20Z</time>
      </trkpt>
      <trkpt lat="48.62498" lon="-2.47311">
        <ele>6.5</ele>
        <time>2013-09-27T13:32:27Z</time>
      </trkpt>
      <trkpt lat="48.6249" lon="-2.47319">
        <ele>6.1</ele>
        <time>2013-09-27T13:32:34Z</time>
      </trkpt>
      <trkpt lat="48.62489" lon="-2.4732">
        <ele>6.1</ele>
        <time>2013-09-27T13:32:35Z</time>
      </trkpt>
      <trkpt lat="48.62477" lon="-2.47334">
        <ele>5.8</ele>
        <time>2013-09-27T13:32:47Z</time>
      </trkpt>
      <trkpt lat="48.62471" lon="-2.47339">
        <ele>5.5</ele>
        <time>2013-09-27T13:32:52Z</time>
      </trkpt>
      <trkpt lat="48.62464" lon="-2.47346">
        <ele>5.8</ele>
        <time>2013-09-27T13:32:58Z</time>
      </trkpt>
      <trkpt lat="48.62456" lon="-2.47353">
        <ele>6</ele>
        <time>2013-09-27T13:33:05Z</time>
      </trkpt>
      <trkpt lat="48.62449" lon="-2.4736">
        <ele>5.3</ele>
        <time>2013-09-27T13:33:11Z</time>
      </trkpt>
      <trkpt lat="48.62442" lon="-2.47367">
        <ele>4.8</ele>
        <time>2013-09-27T13:33:17Z</time>
      </trkpt>
      <trkpt lat="48.62435" lon="-2.47373">
        <ele>5.4</ele>
        <time>2013-09-27T13:33:23Z</time>
      </trkpt>
      <trkpt lat="48.62429" lon="-2.47381">
        <ele>5.9</ele>
        <time>2013-09-27T13:33:29Z</time>
      </trkpt>
      <trkpt lat="48.62423" lon="-2.47388">
        <ele>6</ele>
        <time>2013-09-27T13:33:35Z</time>
      </trkpt>
      <trkpt lat="48.62422" lon="-2.47389">
        <ele>6</ele>
        <time>2013-09-27T13:33:36Z</time>
      </trkpt>
      <trkpt lat="48.62409" lon="-2.47403">
        <ele>6.4</ele>
        <time>2013-09-27T13:33:48Z</time>
      </trkpt>
      <trkpt lat="48.62403" lon="-2.4741">
        <ele>6.1</ele>
        <time>2013-09-27T13:33:54Z</time>
      </trkpt>
      <trkpt lat="48.62397" lon="-2.47418">
        <ele>6.1</ele>
        <time>2013-09-27T13:34:00Z</time>
      </trkpt>
      <trkpt lat="48.6239" lon="-2.47426">
        <ele>5.1</ele>
        <time>2013-09-27T13:34:06Z</time>
      </trkpt>
      <trkpt lat="48.62384" lon="-2.47433">
        <ele>5.8</ele>
        <time>2013-09-27T13:34:12Z</time>
      </trkpt>
      <trkpt lat="48.62378" lon="-2.47441">
        <ele>5.7</ele>
        <time>2013-09-27T13:34:18Z</time>
      </trkpt>
      <trkpt lat="48.62371" lon="-2.4745">
        <ele>5.3</ele>
        <time>2013-09-27T13:34:25Z</time>
      </trkpt>
      <trkpt lat="48.62365" lon="-2.47457">
        <ele>5.2</ele>
        <time>2013-09-27T13:34:31Z</time>
      </trkpt>
      <trkpt lat="48.62358" lon="-2.47466">
        <ele>5.2</ele>
        <time>2013-09-27T13:34:38Z</time>
      </trkpt>
      <trkpt lat="48.62357" lon="-2.47467">
        <ele>5.4</ele>
        <time>2013-09-27T13:34:39Z</time>
      </trkpt>
      <trkpt lat="48.62345" lon="-2.47482">
        <ele>4.9</ele>
        <time>2013-09-27T13:34:51Z</time>
      </trkpt>
      <trkpt lat="48.62339" lon="-2.4749">
        <ele>5.9</ele>
        <time>2013-09-27T13:34:58Z</time>
      </trkpt>
      <trkpt lat="48.62332" lon="-2.47499">
        <ele>5.9</ele>
        <time>2013-09-27T13:35:05Z</time>
      </trkpt>
      <trkpt lat="48.62325" lon="-2.47508">
        <ele>6</ele>
        <time>2013-09-27T13:35:12Z</time>
      </trkpt>
      <trkpt lat="48.62319" lon="-2.47515">
        <ele>6</ele>
        <time>2013-09-27T13:35:18Z</time>
      </trkpt>
      <trkpt lat="48.62313" lon="-2.47522">
        <ele>6.4</ele>
        <time>2013-09-27T13:35:24Z</time>
      </trkpt>
      <trkpt lat="48.62307" lon="-2.4753">
        <ele>6.5</ele>
        <time>2013-09-27T13:35:30Z</time>
      </trkpt>
      <trkpt lat="48.623" lon="-2.47538">
        <ele>6.2</ele>
        <time>2013-09-27T13:35:37Z</time>
      </trkpt>
      <trkpt lat="48.62293" lon="-2.47546">
        <ele>6.3</ele>
        <time>2013-09-27T13:35:43Z</time>
      </trkpt>
      <trkpt lat="48.62292" lon="-2.47547">
        <ele>6.4</ele>
        <time>2013-09-27T13:35:44Z</time>
      </trkpt>
      <trkpt lat="48.62279" lon="-2.4756">
        <ele>6.9</ele>
        <time>2013-09-27T13:35:57Z</time>
      </trkpt>
      <trkpt lat="48.62271" lon="-2.47568">
        <ele>6.7</ele>
        <time>2013-09-27T13:36:04Z</time>
      </trkpt>
      <trkpt lat="48.62264" lon="-2.47576">
        <ele>6.7</ele>
        <time>2013-09-27T13:36:11Z</time>
      </trkpt>
      <trkpt lat="48.62257" lon="-2.47583">
        <ele>6.2</ele>
        <time>2013-09-27T13:36:18Z</time>
      </trkpt>
      <trkpt lat="48.62249" lon="-2.4759">
        <ele>5.9</ele>
        <time>2013-09-27T13:36:25Z</time>
      </trkpt>
      <trkpt lat="48.62242" lon="-2.47597">
        <ele>6.4</ele>
        <time>2013-09-27T13:36:32Z</time>
      </trkpt>
      <trkpt lat="48.62236" lon="-2.47604">
        <ele>6.5</ele>
        <time>2013-09-27T13:36:38Z</time>
      </trkpt>
      <trkpt lat="48.62229" lon="-2.47611">
        <ele>6.6</ele>
        <time>2013-09-27T13:36:45Z</time>
      </trkpt>
      <trkpt lat="48.62228" lon="-2.47613">
        <ele>6.7</ele>
        <time>2013-09-27T13:36:46Z</time>
      </trkpt>
      <trkpt lat="48.62215" lon="-2.47626">
        <ele>6.8</ele>
        <time>2013-09-27T13:36:58Z</time>
      </trkpt>
      <trkpt lat="48.62208" lon="-2.47633">
        <ele>6</ele>
        <time>2013-09-27T13:37:05Z</time>
      </trkpt>
      <trkpt lat="48.62201" lon="-2.47641">
        <ele>5.6</ele>
        <time>2013-09-27T13:37:12Z</time>
      </trkpt>
      <trkpt lat="48.62194" lon="-2.47648">
        <ele>6.4</ele>
        <time>2013-09-27T13:37:19Z</time>
      </trkpt>
      <trkpt lat="48.62186" lon="-2.47656">
        <ele>7.1</ele>
        <time>2013-09-27T13:37:26Z</time>
      </trkpt>
      <trkpt lat="48.62179" lon="-2.47664">
        <ele>5.6</ele>
        <time>2013-09-27T13:37:33Z</time>
      </trkpt>
      <trkpt lat="48.62172" lon="-2.47671">
        <ele>6.5</ele>
        <time>2013-09-27T13:37:40Z</time>
      </trkpt>
      <trkpt lat="48.62166" lon="-2.47679">
        <ele>6.5</ele>
        <time>2013-09-27T13:37:47Z</time>
      </trkpt>
      <trkpt lat="48.62165" lon="-2.4768">
        <ele>6.4</ele>
        <time>2013-09-27T13:37:48Z</time>
      </trkpt>
      <trkpt lat="48.62153" lon="-2.47695">
        <ele>5.7</ele>
        <time>2013-09-27T13:38:01Z</time>
      </trkpt>
      <trkpt lat="48.62146" lon="-2.47702">
        <ele>6.4</ele>
        <time>2013-09-27T13:38:08Z</time>
      </trkpt>
      <trkpt lat="48.62139" lon="-2.4771">
        <ele>6.2</ele>
        <time>2013-09-27T13:38:15Z</time>
      </trkpt>
      <trkpt lat="48.62132" lon="-2.47717">
        <ele>6.7</ele>
        <time>2013-09-27T13:38:21Z</time>
      </trkpt>
      <trkpt lat="48.62125" lon="-2.47724">
        <ele>6.9</ele>
        <time>2013-09-27T13:38:28Z</time>
      </trkpt>
      <trkpt lat="48.62118" lon="-2.47733">
        <ele>6.4</ele>
        <time>2013-09-27T13:38:35Z</time>
      </trkpt>
      <trkpt lat="48.62111" lon="-2.4774">
        <ele>6.8</ele>
        <time>2013-09-27T13:38:42Z</time>
      </trkpt>
      <trkpt lat="48.62105" lon="-2.47748">
        <ele>6.7</ele>
        <time>2013-09-27T13:38:49Z</time>
      </trkpt>
      <trkpt lat="48.62104" lon="-2.47749">
        <ele>6.5</ele>
        <time>2013-09-27T13:38:50Z</time>
      </trkpt>
      <trkpt lat="48.62092" lon="-2.47764">
        <ele>6.2</ele>
        <time>2013-09-27T13:39:02Z</time>
      </trkpt>
      <trkpt lat="48.62086" lon="-2.47772">
        <ele>6.3</ele>
        <time>2013-09-27T13:39:08Z</time>
      </trkpt>
      <trkpt lat="48.6208" lon="-2.47779">
        <ele>6.6</ele>
        <time>2013-09-27T13:39:14Z</time>
      </trkpt>
      <trkpt lat="48.62073" lon="-2.47787">
        <ele>6.2</ele>
        <time>2013-09-27T13:39:21Z</time>
      </trkpt>
      <trkpt lat="48.62066" lon="-2.47796">
        <ele>5.6</ele>
        <time>2013-09-27T13:39:28Z</time>
      </trkpt>
      <trkpt lat="48.62059" lon="-2.47804">
        <ele>6.6</ele>
        <time>2013-09-27T13:39:35Z</time>
      </trkpt>
      <trkpt lat="48.62053" lon="-2.47813">
        <ele>6.9</ele>
        <time>2013-09-27T13:39:42Z</time>
      </trkpt>
      <trkpt lat="48.62046" lon="-2.47821">
        <ele>7.4</ele>
        <time>2013-09-27T13:39:49Z</time>
      </trkpt>
      <trkpt lat="48.62039" lon="-2.47829">
        <ele>7</ele>
        <time>2013-09-27T13:39:56Z</time>
      </trkpt>
      <trkpt lat="48.62038" lon="-2.4783">
        <ele>6.9</ele>
        <time>2013-09-27T13:39:57Z</time>
      </trkpt>
      <trkpt lat="48.62025" lon="-2.47843">
        <ele>6.1</ele>
        <time>2013-09-27T13:40:10Z</time>
      </trkpt>
      <trkpt lat="48.62018" lon="-2.47851">
        <ele>5.7</ele>
        <time>2013-09-27T13:40:17Z</time>
      </trkpt>
      <trkpt lat="48.62012" lon="-2.4786">
        <ele>6.3</ele>
        <time>2013-09-27T13:40:24Z</time>
      </trkpt>
      <trkpt lat="48.62005" lon="-2.47868">
        <ele>6.4</ele>
        <time>2013-09-27T13:40:31Z</time>
      </trkpt>
      <trkpt lat="48.61999" lon="-2.47877">
        <ele>6.8</ele>
        <time>2013-09-27T13:40:38Z</time>
      </trkpt>
      <trkpt lat="48.61992" lon="-2.47885">
        <ele>6.3</ele>
        <time>2013-09-27T13:40:45Z</time>
      </trkpt>
      <trkpt lat="48.61985" lon="-2.47892">
        <ele>6.8</ele>
        <time>2013-09-27T13:40:52Z</time>
      </trkpt>
      <trkpt lat="48.61979" lon="-2.47901">
        <ele>6.7</ele>
        <time>2013-09-27T13:40:59Z</time>
      </trkpt>
      <trkpt lat="48.61978" lon="-2.47902">
        <ele>6.8</ele>
        <time>2013-09-27T13:41:00Z</time>
      </trkpt>
      <trkpt lat="48.61967" lon="-2.4792">
        <ele>6.2</ele>
        <time>2013-09-27T13:41:13Z</time>
      </trkpt>
      <trkpt lat="48.61961" lon="-2.47927">
        <ele>6.3</ele>
        <time>2013-09-27T13:41:19Z</time>
      </trkpt>
      <trkpt lat="48.61955" lon="-2.47934">
        <ele>6.6</ele>
        <time>2013-09-27T13:41:25Z</time>
      </trkpt>
      <trkpt lat="48.61949" lon="-2.47944">
        <ele>6.9</ele>
        <time>2013-09-27T13:41:32Z</time>
      </trkpt>
      <trkpt lat="48.61943" lon="-2.47954">
        <ele>6.5</ele>
        <time>2013-09-27T13:41:39Z</time>
      </trkpt>
      <trkpt lat="48.61936" lon="-2.47961">
        <ele>6.1</ele>
        <time>2013-09-27T13:41:46Z</time>
      </trkpt>
      <trkpt lat="48.61928" lon="-2.47968">
        <ele>7</ele>
        <time>2013-09-27T13:41:53Z</time>
      </trkpt>
      <trkpt lat="48.61922" lon="-2.47975">
        <ele>6.4</ele>
        <time>2013-09-27T13:41:59Z</time>
      </trkpt>
      <trkpt lat="48.61915" lon="-2.47981">
        <ele>6</ele>
        <time>2013-09-27T13:42:05Z</time>
      </trkpt>
      <trkpt lat="48.61914" lon="-2.47982">
        <ele>5.8</ele>
        <time>2013-09-27T13:42:06Z</time>
      </trkpt>
      <trkpt lat="48.619" lon="-2.47994">
        <ele>6.7</ele>
        <time>2013-09-27T13:42:19Z</time>
      </trkpt>
      <trkpt lat="48.61893" lon="-2.48">
        <ele>6</ele>
        <time>2013-09-27T13:42:25Z</time>
      </trkpt>
      <trkpt lat="48.61886" lon="-2.48006">
        <ele>6.3</ele>
        <time>2013-09-27T13:42:31Z</time>
      </trkpt>
      <trkpt lat="48.61879" lon="-2.48013">
        <ele>6.6</ele>
        <time>2013-09-27T13:42:38Z</time>
      </trkpt>
      <trkpt lat="48.61872" lon="-2.4802">
        <ele>6.5</ele>
        <time>2013-09-27T13:42:45Z</time>
      </trkpt>
      <trkpt lat="48.61865" lon="-2.48027">
        <ele>6.8</ele>
        <time>2013-09-27T13:42:52Z</time>
      </trkpt>
      <trkpt lat="48.61858" lon="-2.48033">
        <ele>7.3</ele>
        <time>2013-09-27T13:42:59Z</time>
      </trkpt>
      <trkpt lat="48.6185" lon="-2.4804">
        <ele>6.4</ele>
        <time>2013-09-27T13:43:06Z</time>
      </trkpt>
      <trkpt lat="48.61849" lon="-2.48041">
        <ele>6.3</ele>
        <time>2013-09-27T13:43:07Z</time>
      </trkpt>
      <trkpt lat="48.61835" lon="-2.48054">
        <ele>6.9</ele>
        <time>2013-09-27T13:43:20Z</time>
      </trkpt>
      <trkpt lat="48.61826" lon="-2.48059">
        <ele>7.6</ele>
        <time>2013-09-27T13:43:27Z</time>
      </trkpt>
      <trkpt lat="48.61819" lon="-2.48066">
        <ele>7.2</ele>
        <time>2013-09-27T13:43:34Z</time>
      </trkpt>
      <trkpt lat="48.61811" lon="-2.48072">
        <ele>6.9</ele>
        <time>2013-09-27T13:43:41Z</time>
      </trkpt>
      <trkpt lat="48.61803" lon="-2.48076">
        <ele>6.9</ele>
        <time>2013-09-27T13:43:48Z</time>
      </trkpt>
      <trkpt lat="48.61796" lon="-2.48083">
        <ele>7.4</ele>
        <time>2013-09-27T13:43:55Z</time>
      </trkpt>
      <trkpt lat="48.61788" lon="-2.48088">
        <ele>7.4</ele>
        <time>2013-09-27T13:44:02Z</time>
      </trkpt>
      <trkpt lat="48.61781" lon="-2.48091">
        <ele>7.9</ele>
        <time>2013-09-27T13:44:08Z</time>
      </trkpt>
      <trkpt lat="48.61779" lon="-2.48091">
        <ele>7.9</ele>
        <time>2013-09-27T13:44:09Z</time>
      </trkpt>
      <trkpt lat="48.61765" lon="-2.48094">
        <ele>7.2</ele>
        <time>2013-09-27T13:44:20Z</time>
      </trkpt>
      <trkpt lat="48.61757" lon="-2.48095">
        <ele>7.6</ele>
        <time>2013-09-27T13:44:26Z</time>
      </trkpt>
      <trkpt lat="48.61749" lon="-2.48095">
        <ele>7.5</ele>
        <time>2013-09-27T13:44:32Z</time>
      </trkpt>
      <trkpt lat="48.61741" lon="-2.48091">
        <ele>7.7</ele>
        <time>2013-09-27T13:44:39Z</time>
      </trkpt>
      <trkpt lat="48.61734" lon="-2.48083">
        <ele>9.1</ele>
        <time>2013-09-27T13:44:48Z</time>
      </trkpt>
      <trkpt lat="48.61726" lon="-2.48078">
        <ele>11.2</ele>
        <time>2013-09-27T13:45:12Z</time>
      </trkpt>
      <trkpt lat="48.61725" lon="-2.48077">
        <ele>11.2</ele>
        <time>2013-09-27T13:45:13Z</time>
      </trkpt>
      <trkpt lat="48.61712" lon="-2.48066">
        <ele>11.6</ele>
        <time>2013-09-27T13:45:26Z</time>
      </trkpt>
      <trkpt lat="48.61704" lon="-2.48067">
        <ele>12.1</ele>
        <time>2013-09-27T13:45:35Z</time>
      </trkpt>
      <trkpt lat="48.61697" lon="-2.48075">
        <ele>12.5</ele>
        <time>2013-09-27T13:45:43Z</time>
      </trkpt>
      <trkpt lat="48.61692" lon="-2.48086">
        <ele>12</ele>
        <time>2013-09-27T13:45:51Z</time>
      </trkpt>
      <trkpt lat="48.61688" lon="-2.48098">
        <ele>12.3</ele>
        <time>2013-09-27T13:45:58Z</time>
      </trkpt>
      <trkpt lat="48.61684" lon="-2.4811">
        <ele>13.5</ele>
        <time>2013-09-27T13:46:05Z</time>
      </trkpt>
      <trkpt lat="48.6168" lon="-2.48121">
        <ele>13.9</ele>
        <time>2013-09-27T13:46:12Z</time>
      </trkpt>
      <trkpt lat="48.61676" lon="-2.48131">
        <ele>14.5</ele>
        <time>2013-09-27T13:46:19Z</time>
      </trkpt>
      <trkpt lat="48.61675" lon="-2.48133">
        <ele>14.5</ele>
        <time>2013-09-27T13:46:20Z</time>
      </trkpt>
      <trkpt lat="48.61667" lon="-2.48151">
        <ele>14.4</ele>
        <time>2013-09-27T13:46:31Z</time>
      </trkpt>
      <trkpt lat="48.61662" lon="-2.48161">
        <ele>14</ele>
        <time>2013-09-27T13:46:37Z</time>
      </trkpt>
      <trkpt lat="48.61657" lon="-2.48171">
        <ele>14.1</ele>
        <time>2013-09-27T13:46:43Z</time>
      </trkpt>
      <trkpt lat="48.61653" lon="-2.48181">
        <ele>14.2</ele>
        <time>2013-09-27T13:46:49Z</time>
      </trkpt>
      <trkpt lat="48.61648" lon="-2.4819">
        <ele>14.4</ele>
        <time>2013-09-27T13:46:55Z</time>
      </trkpt>
      <trkpt lat="48.61644" lon="-2.482">
        <ele>13.9</ele>
        <time>2013-09-27T13:47:01Z</time>
      </trkpt>
      <trkpt lat="48.61639" lon="-2.4821">
        <ele>13.3</ele>
        <time>2013-09-27T13:47:07Z</time>
      </trkpt>
      <trkpt lat="48.61634" lon="-2.48219">
        <ele>13.5</ele>
        <time>2013-09-27T13:47:13Z</time>
      </trkpt>
      <trkpt lat="48.61629" lon="-2.48228">
        <ele>13.1</ele>
        <time>2013-09-27T13:47:19Z</time>
      </trkpt>
      <trkpt lat="48.61625" lon="-2.48237">
        <ele>14.2</ele>
        <time>2013-09-27T13:47:25Z</time>
      </trkpt>
      <trkpt lat="48.61624" lon="-2.48239">
        <ele>14.3</ele>
        <time>2013-09-27T13:47:26Z</time>
      </trkpt>
      <trkpt lat="48.61613" lon="-2.48258">
        <ele>14.1</ele>
        <time>2013-09-27T13:47:39Z</time>
      </trkpt>
      <trkpt lat="48.61608" lon="-2.48267">
        <ele>13.7</ele>
        <time>2013-09-27T13:47:45Z</time>
      </trkpt>
      <trkpt lat="48.61603" lon="-2.48276">
        <ele>13</ele>
        <time>2013-09-27T13:47:51Z</time>
      </trkpt>
      <trkpt lat="48.61598" lon="-2.48286">
        <ele>13.4</ele>
        <time>2013-09-27T13:47:57Z</time>
      </trkpt>
      <trkpt lat="48.61591" lon="-2.48293">
        <ele>13.1</ele>
        <time>2013-09-27T13:48:03Z</time>
      </trkpt>
      <trkpt lat="48.61583" lon="-2.48299">
        <ele>14.1</ele>
        <time>2013-09-27T13:48:10Z</time>
      </trkpt>
      <trkpt lat="48.61576" lon="-2.48305">
        <ele>13.5</ele>
        <time>2013-09-27T13:48:17Z</time>
      </trkpt>
      <trkpt lat="48.61571" lon="-2.48316">
        <ele>14.5</ele>
        <time>2013-09-27T13:48:25Z</time>
      </trkpt>
      <trkpt lat="48.61569" lon="-2.48329">
        <ele>15.4</ele>
        <time>2013-09-27T13:48:33Z</time>
      </trkpt>
      <trkpt lat="48.61569" lon="-2.48331">
        <ele>15.3</ele>
        <time>2013-09-27T13:48:34Z</time>
      </trkpt>
      <trkpt lat="48.61564" lon="-2.48353">
        <ele>14.3</ele>
        <time>2013-09-27T13:48:48Z</time>
      </trkpt>
      <trkpt lat="48.6156" lon="-2.48365">
        <ele>14.9</ele>
        <time>2013-09-27T13:48:55Z</time>
      </trkpt>
      <trkpt lat="48.61557" lon="-2.48377">
        <ele>15.4</ele>
        <time>2013-09-27T13:49:02Z</time>
      </trkpt>
      <trkpt lat="48.61554" lon="-2.48389">
        <ele>14.6</ele>
        <time>2013-09-27T13:49:09Z</time>
      </trkpt>
      <trkpt lat="48.6155" lon="-2.484">
        <ele>15.2</ele>
        <time>2013-09-27T13:49:16Z</time>
      </trkpt>
      <trkpt lat="48.61546" lon="-2.48412">
        <ele>15.7</ele>
        <time>2013-09-27T13:49:24Z</time>
      </trkpt>
      <trkpt lat="48.61543" lon="-2.48423">
        <ele>16.1</ele>
        <time>2013-09-27T13:49:32Z</time>
      </trkpt>
      <trkpt lat="48.61539" lon="-2.48434">
        <ele>16.8</ele>
        <time>2013-09-27T13:49:39Z</time>
      </trkpt>
      <trkpt lat="48.61539" lon="-2.48436">
        <ele>16.9</ele>
        <time>2013-09-27T13:49:40Z</time>
      </trkpt>
      <trkpt lat="48.6153" lon="-2.48456">
        <ele>18.3</ele>
        <time>2013-09-27T13:49:57Z</time>
      </trkpt>
      <trkpt lat="48.61525" lon="-2.48467">
        <ele>19.2</ele>
        <time>2013-09-27T13:50:05Z</time>
      </trkpt>
      <trkpt lat="48.61521" lon="-2.48477">
        <ele>19.1</ele>
        <time>2013-09-27T13:50:12Z</time>
      </trkpt>
      <trkpt lat="48.61517" lon="-2.48487">
        <ele>19.4</ele>
        <time>2013-09-27T13:50:19Z</time>
      </trkpt>
      <trkpt lat="48.61514" lon="-2.48498">
        <ele>19.5</ele>
        <time>2013-09-27T13:50:25Z</time>
      </trkpt>
      <trkpt lat="48.61509" lon="-2.48509">
        <ele>20.2</ele>
        <time>2013-09-27T13:50:32Z</time>
      </trkpt>
      <trkpt lat="48.61506" lon="-2.48521">
        <ele>21.6</ele>
        <time>2013-09-27T13:50:38Z</time>
      </trkpt>
      <trkpt lat="48.61504" lon="-2.48533">
        <ele>22.2</ele>
        <time>2013-09-27T13:50:45Z</time>
      </trkpt>
      <trkpt lat="48.61503" lon="-2.48535">
        <ele>22.1</ele>
        <time>2013-09-27T13:50:46Z</time>
      </trkpt>
      <trkpt lat="48.61495" lon="-2.48556">
        <ele>23.5</ele>
        <time>2013-09-27T13:51:00Z</time>
      </trkpt>
      <trkpt lat="48.61491" lon="-2.48566">
        <ele>23.5</ele>
        <time>2013-09-27T13:51:08Z</time>
      </trkpt>
      <trkpt lat="48.61487" lon="-2.48578">
        <ele>24.5</ele>
        <time>2013-09-27T13:51:16Z</time>
      </trkpt>
      <trkpt lat="48.61483" lon="-2.4859">
        <ele>25.5</ele>
        <time>2013-09-27T13:51:24Z</time>
      </trkpt>
      <trkpt lat="48.6148" lon="-2.486">
        <ele>26.3</ele>
        <time>2013-09-27T13:51:31Z</time>
      </trkpt>
      <trkpt lat="48.61477" lon="-2.48613">
        <ele>26.9</ele>
        <time>2013-09-27T13:51:38Z</time>
      </trkpt>
      <trkpt lat="48.61474" lon="-2.48626">
        <ele>27.8</ele>
        <time>2013-09-27T13:51:58Z</time>
      </trkpt>
      <trkpt lat="48.61474" lon="-2.48627">
        <ele>27.4</ele>
        <time>2013-09-27T13:51:59Z</time>
      </trkpt>
      <trkpt lat="48.61474" lon="-2.48651">
        <ele>28.6</ele>
        <time>2013-09-27T13:52:14Z</time>
      </trkpt>
      <trkpt lat="48.61474" lon="-2.48664">
        <ele>28.6</ele>
        <time>2013-09-27T13:52:21Z</time>
      </trkpt>
      <trkpt lat="48.61473" lon="-2.48676">
        <ele>28</ele>
        <time>2013-09-27T13:52:27Z</time>
      </trkpt>
      <trkpt lat="48.6147" lon="-2.48688">
        <ele>27.9</ele>
        <time>2013-09-27T13:52:34Z</time>
      </trkpt>
      <trkpt lat="48.61467" lon="-2.487">
        <ele>28.5</ele>
        <time>2013-09-27T13:52:42Z</time>
      </trkpt>
      <trkpt lat="48.61465" lon="-2.48712">
        <ele>29.9</ele>
        <time>2013-09-27T13:52:51Z</time>
      </trkpt>
      <trkpt lat="48.61464" lon="-2.48724">
        <ele>30.4</ele>
        <time>2013-09-27T13:52:59Z</time>
      </trkpt>
      <trkpt lat="48.61464" lon="-2.48725">
        <ele>30.6</ele>
        <time>2013-09-27T13:53:00Z</time>
      </trkpt>
      <trkpt lat="48.61462" lon="-2.48749">
        <ele>32.4</ele>
        <time>2013-09-27T13:53:34Z</time>
      </trkpt>
      <trkpt lat="48.61463" lon="-2.48762">
        <ele>32.2</ele>
        <time>2013-09-27T13:53:43Z</time>
      </trkpt>
      <trkpt lat="48.61464" lon="-2.48775">
        <ele>31.7</ele>
        <time>2013-09-27T13:53:51Z</time>
      </trkpt>
      <trkpt lat="48.61465" lon="-2.48787">
        <ele>31.8</ele>
        <time>2013-09-27T13:53:58Z</time>
      </trkpt>
      <trkpt lat="48.61464" lon="-2.488">
        <ele>30.9</ele>
        <time>2013-09-27T13:54:05Z</time>
      </trkpt>
      <trkpt lat="48.61464" lon="-2.48802">
        <ele>30.5</ele>
        <time>2013-09-27T13:54:06Z</time>
      </trkpt>
      <trkpt lat="48.61462" lon="-2.48825">
        <ele>30.6</ele>
        <time>2013-09-27T13:54:19Z</time>
      </trkpt>
      <trkpt lat="48.61461" lon="-2.48837">
        <ele>29.9</ele>
        <time>2013-09-27T13:54:27Z</time>
      </trkpt>
      <trkpt lat="48.61457" lon="-2.48849">
        <ele>29.8</ele>
        <time>2013-09-27T13:54:38Z</time>
      </trkpt>
      <trkpt lat="48.61455" lon="-2.4886">
        <ele>29</ele>
        <time>2013-09-27T13:54:45Z</time>
      </trkpt>
      <trkpt lat="48.61451" lon="-2.48873">
        <ele>29.7</ele>
        <time>2013-09-27T13:54:53Z</time>
      </trkpt>
      <trkpt lat="48.61448" lon="-2.48884">
        <ele>29.1</ele>
        <time>2013-09-27T13:55:00Z</time>
      </trkpt>
      <trkpt lat="48.61445" lon="-2.48896">
        <ele>30.2</ele>
        <time>2013-09-27T13:55:06Z</time>
      </trkpt>
      <trkpt lat="48.61445" lon="-2.48898">
        <ele>30.4</ele>
        <time>2013-09-27T13:55:07Z</time>
      </trkpt>
      <trkpt lat="48.61439" lon="-2.48921">
        <ele>30.2</ele>
        <time>2013-09-27T13:55:22Z</time>
      </trkpt>
      <trkpt lat="48.61436" lon="-2.48932">
        <ele>31.9</ele>
        <time>2013-09-27T13:55:32Z</time>
      </trkpt>
      <trkpt lat="48.61433" lon="-2.48944">
        <ele>31.5</ele>
        <time>2013-09-27T13:55:39Z</time>
      </trkpt>
      <trkpt lat="48.61428" lon="-2.48954">
        <ele>31.2</ele>
        <time>2013-09-27T13:55:46Z</time>
      </trkpt>
      <trkpt lat="48.61423" lon="-2.48965">
        <ele>30.5</ele>
        <time>2013-09-27T13:55:53Z</time>
      </trkpt>
      <trkpt lat="48.61418" lon="-2.48976">
        <ele>29.5</ele>
        <time>2013-09-27T13:56:00Z</time>
      </trkpt>
      <trkpt lat="48.61415" lon="-2.48987">
        <ele>28.9</ele>
        <time>2013-09-27T13:56:09Z</time>
      </trkpt>
      <trkpt lat="48.61414" lon="-2.48988">
        <ele>28.8</ele>
        <time>2013-09-27T13:56:10Z</time>
      </trkpt>
      <trkpt lat="48.61405" lon="-2.49009">
        <ele>26.4</ele>
        <time>2013-09-27T13:56:29Z</time>
      </trkpt>
      <trkpt lat="48.61398" lon="-2.49014">
        <ele>25.4</ele>
        <time>2013-09-27T13:56:37Z</time>
      </trkpt>
      <trkpt lat="48.61392" lon="-2.49021">
        <ele>24.2</ele>
        <time>2013-09-27T13:56:45Z</time>
      </trkpt>
      <trkpt lat="48.61386" lon="-2.4903">
        <ele>23.3</ele>
        <time>2013-09-27T13:56:52Z</time>
      </trkpt>
      <trkpt lat="48.61379" lon="-2.49037">
        <ele>23.5</ele>
        <time>2013-09-27T13:56:59Z</time>
      </trkpt>
      <trkpt lat="48.61371" lon="-2.49041">
        <ele>23.6</ele>
        <time>2013-09-27T13:57:06Z</time>
      </trkpt>
      <trkpt lat="48.61363" lon="-2.49045">
        <ele>24.3</ele>
        <time>2013-09-27T13:57:13Z</time>
      </trkpt>
      <trkpt lat="48.61362" lon="-2.49046">
        <ele>24.4</ele>
        <time>2013-09-27T13:57:14Z</time>
      </trkpt>
      <trkpt lat="48.61347" lon="-2.49052">
        <ele>24.6</ele>
        <time>2013-09-27T13:57:40Z</time>
      </trkpt>
      <trkpt lat="48.61339" lon="-2.49054">
        <ele>24.7</ele>
        <time>2013-09-27T13:57:49Z</time>
      </trkpt>
      <trkpt lat="48.6133" lon="-2.49052">
        <ele>26.1</ele>
        <time>2013-09-27T13:57:59Z</time>
      </trkpt>
      <trkpt lat="48.61322" lon="-2.49054">
        <ele>28</ele>
        <time>2013-09-27T13:58:08Z</time>
      </trkpt>
      <trkpt lat="48.61314" lon="-2.49058">
        <ele>27.5</ele>
        <time>2013-09-27T13:58:16Z</time>
      </trkpt>
      <trkpt lat="48.61313" lon="-2.49058">
        <ele>27.6</ele>
        <time>2013-09-27T13:58:17Z</time>
      </trkpt>
      <trkpt lat="48.61298" lon="-2.49061">
        <ele>27.3</ele>
        <time>2013-09-27T13:58:31Z</time>
      </trkpt>
      <trkpt lat="48.6129" lon="-2.49057">
        <ele>28.1</ele>
        <time>2013-09-27T13:58:47Z</time>
      </trkpt>
      <trkpt lat="48.61282" lon="-2.49053">
        <ele>28.7</ele>
        <time>2013-09-27T13:59:52Z</time>
      </trkpt>
      <trkpt lat="48.61281" lon="-2.49052">
        <ele>28.5</ele>
        <time>2013-09-27T13:59:53Z</time>
      </trkpt>
      <trkpt lat="48.61266" lon="-2.49044">
        <ele>29.4</ele>
        <time>2013-09-27T14:00:09Z</time>
      </trkpt>
      <trkpt lat="48.61258" lon="-2.49041">
        <ele>28.2</ele>
        <time>2013-09-27T14:00:18Z</time>
      </trkpt>
      <trkpt lat="48.61249" lon="-2.4904">
        <ele>27.9</ele>
        <time>2013-09-27T14:00:26Z</time>
      </trkpt>
      <trkpt lat="48.61241" lon="-2.49042">
        <ele>28.4</ele>
        <time>2013-09-27T14:00:34Z</time>
      </trkpt>
      <trkpt lat="48.61234" lon="-2.49034">
        <ele>28.6</ele>
        <time>2013-09-27T14:00:56Z</time>
      </trkpt>
      <trkpt lat="48.61233" lon="-2.49033">
        <ele>28.9</ele>
        <time>2013-09-27T14:00:57Z</time>
      </trkpt>
      <trkpt lat="48.61219" lon="-2.49021">
        <ele>31.2</ele>
        <time>2013-09-27T14:01:16Z</time>
      </trkpt>
      <trkpt lat="48.61213" lon="-2.4903">
        <ele>31.3</ele>
        <time>2013-09-27T14:01:24Z</time>
      </trkpt>
      <trkpt lat="48.61208" lon="-2.49041">
        <ele>31.3</ele>
        <time>2013-09-27T14:01:31Z</time>
      </trkpt>
      <trkpt lat="48.61201" lon="-2.49047">
        <ele>29.8</ele>
        <time>2013-09-27T14:01:37Z</time>
      </trkpt>
      <trkpt lat="48.61193" lon="-2.49051">
        <ele>30.5</ele>
        <time>2013-09-27T14:01:42Z</time>
      </trkpt>
      <trkpt lat="48.61186" lon="-2.49057">
        <ele>30.3</ele>
        <time>2013-09-27T14:01:48Z</time>
      </trkpt>
      <trkpt lat="48.61179" lon="-2.49064">
        <ele>29.9</ele>
        <time>2013-09-27T14:01:54Z</time>
      </trkpt>
      <trkpt lat="48.61173" lon="-2.49072">
        <ele>29.6</ele>
        <time>2013-09-27T14:02:01Z</time>
      </trkpt>
      <trkpt lat="48.61172" lon="-2.49073">
        <ele>29.6</ele>
        <time>2013-09-27T14:02:02Z</time>
      </trkpt>
      <trkpt lat="48.61161" lon="-2.4909">
        <ele>30.7</ele>
        <time>2013-09-27T14:02:16Z</time>
      </trkpt>
      <trkpt lat="48.61155" lon="-2.49099">
        <ele>29.1</ele>
        <time>2013-09-27T14:02:24Z</time>
      </trkpt>
      <trkpt lat="48.61149" lon="-2.49109">
        <ele>29.5</ele>
        <time>2013-09-27T14:02:32Z</time>
      </trkpt>
      <trkpt lat="48.61142" lon="-2.49116">
        <ele>30</ele>
        <time>2013-09-27T14:02:51Z</time>
      </trkpt>
      <trkpt lat="48.61135" lon="-2.49124">
        <ele>34.8</ele>
        <time>2013-09-27T14:03:11Z</time>
      </trkpt>
      <trkpt lat="48.61134" lon="-2.49124">
        <ele>35</ele>
        <time>2013-09-27T14:03:12Z</time>
      </trkpt>
      <trkpt lat="48.61125" lon="-2.49143">
        <ele>36.2</ele>
        <time>2013-09-27T14:03:35Z</time>
      </trkpt>
      <trkpt lat="48.61118" lon="-2.49152">
        <ele>37</ele>
        <time>2013-09-27T14:03:44Z</time>
      </trkpt>
      <trkpt lat="48.61112" lon="-2.4916">
        <ele>38.5</ele>
        <time>2013-09-27T14:03:53Z</time>
      </trkpt>
      <trkpt lat="48.61104" lon="-2.49167">
        <ele>39.1</ele>
        <time>2013-09-27T14:04:02Z</time>
      </trkpt>
      <trkpt lat="48.61096" lon="-2.49169">
        <ele>39</ele>
        <time>2013-09-27T14:04:09Z</time>
      </trkpt>
      <trkpt lat="48.61087" lon="-2.49173">
        <ele>38.8</ele>
        <time>2013-09-27T14:04:18Z</time>
      </trkpt>
      <trkpt lat="48.61087" lon="-2.49174">
        <ele>38.6</ele>
        <time>2013-09-27T14:04:19Z</time>
      </trkpt>
      <trkpt lat="48.61085" lon="-2.49198">
        <ele>35.1</ele>
        <time>2013-09-27T14:04:41Z</time>
      </trkpt>
      <trkpt lat="48.61083" lon="-2.49211">
        <ele>33.3</ele>
        <time>2013-09-27T14:04:51Z</time>
      </trkpt>
      <trkpt lat="48.61085" lon="-2.49223">
        <ele>32.8</ele>
        <time>2013-09-27T14:05:02Z</time>
      </trkpt>
      <trkpt lat="48.61079" lon="-2.49233">
        <ele>30.6</ele>
        <time>2013-09-27T14:05:15Z</time>
      </trkpt>
      <trkpt lat="48.61071" lon="-2.49236">
        <ele>30.2</ele>
        <time>2013-09-27T14:05:25Z</time>
      </trkpt>
      <trkpt lat="48.6107" lon="-2.49236">
        <ele>29.8</ele>
        <time>2013-09-27T14:05:26Z</time>
      </trkpt>
      <trkpt lat="48.61062" lon="-2.49259">
        <ele>25.2</ele>
        <time>2013-09-27T14:05:56Z</time>
      </trkpt>
      <trkpt lat="48.61056" lon="-2.49267">
        <ele>23.3</ele>
        <time>2013-09-27T14:06:07Z</time>
      </trkpt>
      <trkpt lat="48.61048" lon="-2.49275">
        <ele>22.3</ele>
        <time>2013-09-27T14:06:17Z</time>
      </trkpt>
      <trkpt lat="48.6104" lon="-2.49278">
        <ele>19.3</ele>
        <time>2013-09-27T14:06:25Z</time>
      </trkpt>
      <trkpt lat="48.61032" lon="-2.49281">
        <ele>18.1</ele>
        <time>2013-09-27T14:06:32Z</time>
      </trkpt>
      <trkpt lat="48.61031" lon="-2.49282">
        <ele>17.6</ele>
        <time>2013-09-27T14:06:33Z</time>
      </trkpt>
      <trkpt lat="48.61015" lon="-2.49283">
        <ele>16.1</ele>
        <time>2013-09-27T14:06:46Z</time>
      </trkpt>
      <trkpt lat="48.61008" lon="-2.49286">
        <ele>15.4</ele>
        <time>2013-09-27T14:06:52Z</time>
      </trkpt>
      <trkpt lat="48.61" lon="-2.49291">
        <ele>14.6</ele>
        <time>2013-09-27T14:06:59Z</time>
      </trkpt>
      <trkpt lat="48.60994" lon="-2.49298">
        <ele>14.8</ele>
        <time>2013-09-27T14:07:06Z</time>
      </trkpt>
      <trkpt lat="48.60988" lon="-2.49306">
        <ele>14.5</ele>
        <time>2013-09-27T14:07:13Z</time>
      </trkpt>
      <trkpt lat="48.60981" lon="-2.49314">
        <ele>13.1</ele>
        <time>2013-09-27T14:07:20Z</time>
      </trkpt>
      <trkpt lat="48.60974" lon="-2.49321">
        <ele>12.7</ele>
        <time>2013-09-27T14:07:28Z</time>
      </trkpt>
      <trkpt lat="48.60967" lon="-2.49328">
        <ele>12.4</ele>
        <time>2013-09-27T14:07:35Z</time>
      </trkpt>
      <trkpt lat="48.60967" lon="-2.49329">
        <ele>12.3</ele>
        <time>2013-09-27T14:07:36Z</time>
      </trkpt>
      <trkpt lat="48.60956" lon="-2.49347">
        <ele>13.1</ele>
        <time>2013-09-27T14:08:20Z</time>
      </trkpt>
      <trkpt lat="48.6095" lon="-2.49357">
        <ele>12</ele>
        <time>2013-09-27T14:08:29Z</time>
      </trkpt>
      <trkpt lat="48.6095" lon="-2.4937">
        <ele>10.4</ele>
        <time>2013-09-27T14:09:25Z</time>
      </trkpt>
      <trkpt lat="48.6095" lon="-2.49371">
        <ele>10.8</ele>
        <time>2013-09-27T14:09:26Z</time>
      </trkpt>
      <trkpt lat="48.60957" lon="-2.49379">
        <ele>11.3</ele>
        <time>2013-09-27T14:15:27Z</time>
      </trkpt>
      <trkpt lat="48.60956" lon="-2.49402">
        <ele>11.2</ele>
        <time>2013-09-27T14:15:40Z</time>
      </trkpt>
      <trkpt lat="48.60955" lon="-2.49416">
        <ele>11.1</ele>
        <time>2013-09-27T14:15:47Z</time>
      </trkpt>
      <trkpt lat="48.60955" lon="-2.49429">
        <ele>10.5</ele>
        <time>2013-09-27T14:15:54Z</time>
      </trkpt>
      <trkpt lat="48.60955" lon="-2.49442">
        <ele>10.5</ele>
        <time>2013-09-27T14:16:01Z</time>
      </trkpt>
      <trkpt lat="48.60956" lon="-2.49456">
        <ele>9.6</ele>
        <time>2013-09-27T14:16:08Z</time>
      </trkpt>
      <trkpt lat="48.60956" lon="-2.49467">
        <ele>9.6</ele>
        <time>2013-09-27T14:16:14Z</time>
      </trkpt>
      <trkpt lat="48.60956" lon="-2.49481">
        <ele>9.7</ele>
        <time>2013-09-27T14:16:21Z</time>
      </trkpt>
      <trkpt lat="48.60955" lon="-2.49493">
        <ele>10.1</ele>
        <time>2013-09-27T14:16:28Z</time>
      </trkpt>
      <trkpt lat="48.60955" lon="-2.49495">
        <ele>10</ele>
        <time>2013-09-27T14:16:29Z</time>
      </trkpt>
      <trkpt lat="48.60954" lon="-2.49519">
        <ele>9.2</ele>
        <time>2013-09-27T14:16:42Z</time>
      </trkpt>
      <trkpt lat="48.60954" lon="-2.49532">
        <ele>9.1</ele>
        <time>2013-09-27T14:16:49Z</time>
      </trkpt>
      <trkpt lat="48.60953" lon="-2.49545">
        <ele>9.3</ele>
        <time>2013-09-27T14:16:56Z</time>
      </trkpt>
      <trkpt lat="48.60953" lon="-2.49557">
        <ele>8.9</ele>
        <time>2013-09-27T14:17:03Z</time>
      </trkpt>
      <trkpt lat="48.60956" lon="-2.4957">
        <ele>9.3</ele>
        <time>2013-09-27T14:17:10Z</time>
      </trkpt>
      <trkpt lat="48.60957" lon="-2.49581">
        <ele>9.2</ele>
        <time>2013-09-27T14:17:16Z</time>
      </trkpt>
      <trkpt lat="48.60957" lon="-2.49594">
        <ele>8.8</ele>
        <time>2013-09-27T14:17:23Z</time>
      </trkpt>
      <trkpt lat="48.60956" lon="-2.49607">
        <ele>8.9</ele>
        <time>2013-09-27T14:17:30Z</time>
      </trkpt>
      <trkpt lat="48.60956" lon="-2.49609">
        <ele>8.8</ele>
        <time>2013-09-27T14:17:31Z</time>
      </trkpt>
      <trkpt lat="48.60957" lon="-2.49633">
        <ele>8.4</ele>
        <time>2013-09-27T14:17:44Z</time>
      </trkpt>
      <trkpt lat="48.60957" lon="-2.49645">
        <ele>8.6</ele>
        <time>2013-09-27T14:17:51Z</time>
      </trkpt>
      <trkpt lat="48.60958" lon="-2.49658">
        <ele>8.6</ele>
        <time>2013-09-27T14:17:58Z</time>
      </trkpt>
      <trkpt lat="48.60959" lon="-2.49671">
        <ele>9.7</ele>
        <time>2013-09-27T14:18:05Z</time>
      </trkpt>
      <trkpt lat="48.6096" lon="-2.49683">
        <ele>8.4</ele>
        <time>2013-09-27T14:18:12Z</time>
      </trkpt>
      <trkpt lat="48.60961" lon="-2.49695">
        <ele>7.8</ele>
        <time>2013-09-27T14:18:19Z</time>
      </trkpt>
      <trkpt lat="48.60962" lon="-2.49707">
        <ele>7.9</ele>
        <time>2013-09-27T14:18:26Z</time>
      </trkpt>
      <trkpt lat="48.60964" lon="-2.49721">
        <ele>7.4</ele>
        <time>2013-09-27T14:18:34Z</time>
      </trkpt>
      <trkpt lat="48.60964" lon="-2.49722">
        <ele>7.5</ele>
        <time>2013-09-27T14:18:35Z</time>
      </trkpt>
      <trkpt lat="48.60967" lon="-2.49746">
        <ele>6.5</ele>
        <time>2013-09-27T14:18:50Z</time>
      </trkpt>
      <trkpt lat="48.60969" lon="-2.49758">
        <ele>8.1</ele>
        <time>2013-09-27T14:18:58Z</time>
      </trkpt>
      <trkpt lat="48.60965" lon="-2.4977">
        <ele>7.2</ele>
        <time>2013-09-27T14:20:47Z</time>
      </trkpt>
      <trkpt lat="48.60966" lon="-2.49772">
        <ele>7.5</ele>
        <time>2013-09-27T14:20:48Z</time>
      </trkpt>
      <trkpt lat="48.60966" lon="-2.49795">
        <ele>7.7</ele>
        <time>2013-09-27T14:21:03Z</time>
      </trkpt>
      <trkpt lat="48.60966" lon="-2.49808">
        <ele>8.3</ele>
        <time>2013-09-27T14:21:11Z</time>
      </trkpt>
      <trkpt lat="48.60967" lon="-2.49821">
        <ele>7.6</ele>
        <time>2013-09-27T14:21:20Z</time>
      </trkpt>
      <trkpt lat="48.60967" lon="-2.49834">
        <ele>3.8</ele>
        <time>2013-09-27T14:21:28Z</time>
      </trkpt>
      <trkpt lat="48.60966" lon="-2.49846">
        <ele>7.3</ele>
        <time>2013-09-27T14:21:36Z</time>
      </trkpt>
      <trkpt lat="48.60963" lon="-2.49858">
        <ele>7.3</ele>
        <time>2013-09-27T14:21:44Z</time>
      </trkpt>
      <trkpt lat="48.60959" lon="-2.49869">
        <ele>6.8</ele>
        <time>2013-09-27T14:21:52Z</time>
      </trkpt>
      <trkpt lat="48.60959" lon="-2.49871">
        <ele>6.8</ele>
        <time>2013-09-27T14:21:53Z</time>
      </trkpt>
      <trkpt lat="48.60951" lon="-2.49891">
        <ele>7</ele>
        <time>2013-09-27T14:22:08Z</time>
      </trkpt>
      <trkpt lat="48.60947" lon="-2.49902">
        <ele>7.5</ele>
        <time>2013-09-27T14:22:17Z</time>
      </trkpt>
      <trkpt lat="48.60942" lon="-2.49914">
        <ele>7.2</ele>
        <time>2013-09-27T14:22:26Z</time>
      </trkpt>
      <trkpt lat="48.60938" lon="-2.49925">
        <ele>7</ele>
        <time>2013-09-27T14:22:36Z</time>
      </trkpt>
      <trkpt lat="48.60934" lon="-2.49935">
        <ele>7.1</ele>
        <time>2013-09-27T14:22:46Z</time>
      </trkpt>
      <trkpt lat="48.60929" lon="-2.49946">
        <ele>7.1</ele>
        <time>2013-09-27T14:22:56Z</time>
      </trkpt>
      <trkpt lat="48.60929" lon="-2.49948">
        <ele>7</ele>
        <time>2013-09-27T14:22:57Z</time>
      </trkpt>
      <trkpt lat="48.60921" lon="-2.49969">
        <ele>7.1</ele>
        <time>2013-09-27T14:23:16Z</time>
      </trkpt>
      <trkpt lat="48.60918" lon="-2.49981">
        <ele>7.3</ele>
        <time>2013-09-27T14:23:26Z</time>
      </trkpt>
      <trkpt lat="48.60913" lon="-2.49991">
        <ele>8.4</ele>
        <time>2013-09-27T14:23:36Z</time>
      </trkpt>
      <trkpt lat="48.60908" lon="-2.50001">
        <ele>6.7</ele>
        <time>2013-09-27T14:23:46Z</time>
      </trkpt>
      <trkpt lat="48.60902" lon="-2.50011">
        <ele>7.2</ele>
        <time>2013-09-27T14:23:56Z</time>
      </trkpt>
      <trkpt lat="48.60897" lon="-2.5002">
        <ele>7.2</ele>
        <time>2013-09-27T14:24:06Z</time>
      </trkpt>
      <trkpt lat="48.60897" lon="-2.50021">
        <ele>7.1</ele>
        <time>2013-09-27T14:24:07Z</time>
      </trkpt>
      <trkpt lat="48.60889" lon="-2.50043">
        <ele>6.8</ele>
        <time>2013-09-27T14:24:29Z</time>
      </trkpt>
      <trkpt lat="48.60884" lon="-2.50053">
        <ele>7.4</ele>
        <time>2013-09-27T14:24:40Z</time>
      </trkpt>
      <trkpt lat="48.60878" lon="-2.50063">
        <ele>7</ele>
        <time>2013-09-27T14:24:51Z</time>
      </trkpt>
      <trkpt lat="48.60873" lon="-2.50073">
        <ele>6.9</ele>
        <time>2013-09-27T14:25:01Z</time>
      </trkpt>
      <trkpt lat="48.60868" lon="-2.50084">
        <ele>7</ele>
        <time>2013-09-27T14:25:12Z</time>
      </trkpt>
      <trkpt lat="48.60868" lon="-2.50086">
        <ele>7</ele>
        <time>2013-09-27T14:25:13Z</time>
      </trkpt>
      <trkpt lat="48.60861" lon="-2.50108">
        <ele>7.8</ele>
        <time>2013-09-27T14:25:32Z</time>
      </trkpt>
      <trkpt lat="48.60857" lon="-2.50119">
        <ele>7.3</ele>
        <time>2013-09-27T14:25:43Z</time>
      </trkpt>
      <trkpt lat="48.60853" lon="-2.5013">
        <ele>7.4</ele>
        <time>2013-09-27T14:25:54Z</time>
      </trkpt>
      <trkpt lat="48.60848" lon="-2.50142">
        <ele>7.6</ele>
        <time>2013-09-27T14:26:05Z</time>
      </trkpt>
      <trkpt lat="48.60844" lon="-2.50153">
        <ele>6.9</ele>
        <time>2013-09-27T14:26:15Z</time>
      </trkpt>
      <trkpt lat="48.60844" lon="-2.50154">
        <ele>6.7</ele>
        <time>2013-09-27T14:26:16Z</time>
      </trkpt>
      <trkpt lat="48.60837" lon="-2.50175">
        <ele>7.6</ele>
        <time>2013-09-27T14:26:35Z</time>
      </trkpt>
      <trkpt lat="48.60832" lon="-2.50186">
        <ele>6.4</ele>
        <time>2013-09-27T14:26:45Z</time>
      </trkpt>
      <trkpt lat="48.60826" lon="-2.50196">
        <ele>4.7</ele>
        <time>2013-09-27T14:26:55Z</time>
      </trkpt>
      <trkpt lat="48.60822" lon="-2.50207">
        <ele>8.3</ele>
        <time>2013-09-27T14:27:05Z</time>
      </trkpt>
      <trkpt lat="48.60818" lon="-2.50219">
        <ele>5.5</ele>
        <time>2013-09-27T14:27:15Z</time>
      </trkpt>
      <trkpt lat="48.60814" lon="-2.5023">
        <ele>5.4</ele>
        <time>2013-09-27T14:27:24Z</time>
      </trkpt>
      <trkpt lat="48.60813" lon="-2.50232">
        <ele>6.6</ele>
        <time>2013-09-27T14:27:25Z</time>
      </trkpt>
      <trkpt lat="48.60804" lon="-2.50252">
        <ele>5.4</ele>
        <time>2013-09-27T14:27:42Z</time>
      </trkpt>
      <trkpt lat="48.60799" lon="-2.50263">
        <ele>8.4</ele>
        <time>2013-09-27T14:27:51Z</time>
      </trkpt>
      <trkpt lat="48.60795" lon="-2.50274">
        <ele>3.9</ele>
        <time>2013-09-27T14:27:59Z</time>
      </trkpt>
      <trkpt lat="48.6079" lon="-2.50285">
        <ele>8</ele>
        <time>2013-09-27T14:28:07Z</time>
      </trkpt>
      <trkpt lat="48.60787" lon="-2.50296">
        <ele>8.8</ele>
        <time>2013-09-27T14:28:15Z</time>
      </trkpt>
      <trkpt lat="48.60784" lon="-2.50309">
        <ele>7.1</ele>
        <time>2013-09-27T14:28:24Z</time>
      </trkpt>
      <trkpt lat="48.60781" lon="-2.50321">
        <ele>8.3</ele>
        <time>2013-09-27T14:28:33Z</time>
      </trkpt>
      <trkpt lat="48.6078" lon="-2.50322">
        <ele>8.8</ele>
        <time>2013-09-27T14:28:34Z</time>
      </trkpt>
      <trkpt lat="48.60772" lon="-2.50344">
        <ele>8.7</ele>
        <time>2013-09-27T14:28:51Z</time>
      </trkpt>
      <trkpt lat="48.60768" lon="-2.50356">
        <ele>7.9</ele>
        <time>2013-09-27T14:29:00Z</time>
      </trkpt>
      <trkpt lat="48.60764" lon="-2.50368">
        <ele>6.7</ele>
        <time>2013-09-27T14:29:09Z</time>
      </trkpt>
      <trkpt lat="48.60761" lon="-2.50381">
        <ele>7.4</ele>
        <time>2013-09-27T14:29:18Z</time>
      </trkpt>
      <trkpt lat="48.60757" lon="-2.50391">
        <ele>8.7</ele>
        <time>2013-09-27T14:29:26Z</time>
      </trkpt>
      <trkpt lat="48.60752" lon="-2.50403">
        <ele>7.8</ele>
        <time>2013-09-27T14:29:35Z</time>
      </trkpt>
      <trkpt lat="48.60752" lon="-2.50404">
        <ele>7.1</ele>
        <time>2013-09-27T14:29:36Z</time>
      </trkpt>
      <trkpt lat="48.60745" lon="-2.50427">
        <ele>10.3</ele>
        <time>2013-09-27T14:29:53Z</time>
      </trkpt>
      <trkpt lat="48.60741" lon="-2.50438">
        <ele>10</ele>
        <time>2013-09-27T14:30:02Z</time>
      </trkpt>
      <trkpt lat="48.60737" lon="-2.50449">
        <ele>8.2</ele>
        <time>2013-09-27T14:30:11Z</time>
      </trkpt>
      <trkpt lat="48.60733" lon="-2.5046">
        <ele>9.8</ele>
        <time>2013-09-27T14:30:20Z</time>
      </trkpt>
      <trkpt lat="48.60729" lon="-2.50472">
        <ele>7.3</ele>
        <time>2013-09-27T14:30:29Z</time>
      </trkpt>
      <trkpt lat="48.60727" lon="-2.50485">
        <ele>2.2</ele>
        <time>2013-09-27T14:30:38Z</time>
      </trkpt>
      <trkpt lat="48.60727" lon="-2.50486">
        <ele>0.4</ele>
        <time>2013-09-27T14:30:39Z</time>
      </trkpt>
      <trkpt lat="48.6072" lon="-2.50509">
        <ele>8.6</ele>
        <time>2013-09-27T14:30:56Z</time>
      </trkpt>
      <trkpt lat="48.60717" lon="-2.5052">
        <ele>7.1</ele>
        <time>2013-09-27T14:31:05Z</time>
      </trkpt>
      <trkpt lat="48.60714" lon="-2.50532">
        <ele>7.5</ele>
        <time>2013-09-27T14:31:15Z</time>
      </trkpt>
      <trkpt lat="48.6071" lon="-2.50543">
        <ele>7.4</ele>
        <time>2013-09-27T14:31:24Z</time>
      </trkpt>
      <trkpt lat="48.60706" lon="-2.50554">
        <ele>9.3</ele>
        <time>2013-09-27T14:31:33Z</time>
      </trkpt>
      <trkpt lat="48.60702" lon="-2.50565">
        <ele>10.5</ele>
        <time>2013-09-27T14:31:42Z</time>
      </trkpt>
      <trkpt lat="48.60701" lon="-2.50566">
        <ele>9.6</ele>
        <time>2013-09-27T14:31:43Z</time>
      </trkpt>
      <trkpt lat="48.60695" lon="-2.50588">
        <ele>8.6</ele>
        <time>2013-09-27T14:32:00Z</time>
      </trkpt>
      <trkpt lat="48.60691" lon="-2.506">
        <ele>8.4</ele>
        <time>2013-09-27T14:32:09Z</time>
      </trkpt>
      <trkpt lat="48.60687" lon="-2.5061">
        <ele>9.5</ele>
        <time>2013-09-27T14:32:18Z</time>
      </trkpt>
      <trkpt lat="48.60683" lon="-2.50621">
        <ele>8.4</ele>
        <time>2013-09-27T14:32:27Z</time>
      </trkpt>
      <trkpt lat="48.60678" lon="-2.50633">
        <ele>7.7</ele>
        <time>2013-09-27T14:32:37Z</time>
      </trkpt>
      <trkpt lat="48.60674" lon="-2.50644">
        <ele>9.5</ele>
        <time>2013-09-27T14:32:46Z</time>
      </trkpt>
      <trkpt lat="48.60673" lon="-2.50645">
        <ele>9.3</ele>
        <time>2013-09-27T14:32:47Z</time>
      </trkpt>
      <trkpt lat="48.60665" lon="-2.50667">
        <ele>7.4</ele>
        <time>2013-09-27T14:33:06Z</time>
      </trkpt>
      <trkpt lat="48.60661" lon="-2.50679">
        <ele>9.7</ele>
        <time>2013-09-27T14:33:15Z</time>
      </trkpt>
      <trkpt lat="48.60657" lon="-2.5069">
        <ele>9.5</ele>
        <time>2013-09-27T14:33:24Z</time>
      </trkpt>
      <trkpt lat="48.60654" lon="-2.50701">
        <ele>9.3</ele>
        <time>2013-09-27T14:33:33Z</time>
      </trkpt>
      <trkpt lat="48.6065" lon="-2.50712">
        <ele>8.4</ele>
        <time>2013-09-27T14:33:42Z</time>
      </trkpt>
      <trkpt lat="48.60646" lon="-2.50724">
        <ele>8.6</ele>
        <time>2013-09-27T14:33:52Z</time>
      </trkpt>
      <trkpt lat="48.60646" lon="-2.50725">
        <ele>8.4</ele>
        <time>2013-09-27T14:33:53Z</time>
      </trkpt>
      <trkpt lat="48.60638" lon="-2.50746">
        <ele>10.3</ele>
        <time>2013-09-27T14:34:12Z</time>
      </trkpt>
      <trkpt lat="48.60633" lon="-2.50757">
        <ele>9</ele>
        <time>2013-09-27T14:34:22Z</time>
      </trkpt>
      <trkpt lat="48.60629" lon="-2.50769">
        <ele>8.2</ele>
        <time>2013-09-27T14:34:32Z</time>
      </trkpt>
      <trkpt lat="48.60625" lon="-2.50781">
        <ele>8.6</ele>
        <time>2013-09-27T14:34:42Z</time>
      </trkpt>
      <trkpt lat="48.60622" lon="-2.50792">
        <ele>9.1</ele>
        <time>2013-09-27T14:34:52Z</time>
      </trkpt>
      <trkpt lat="48.60618" lon="-2.50804">
        <ele>8.7</ele>
        <time>2013-09-27T14:35:02Z</time>
      </trkpt>
      <trkpt lat="48.60618" lon="-2.50805">
        <ele>9.1</ele>
        <time>2013-09-27T14:35:03Z</time>
      </trkpt>
      <trkpt lat="48.60611" lon="-2.50826">
        <ele>9.1</ele>
        <time>2013-09-27T14:35:20Z</time>
      </trkpt>
      <trkpt lat="48.60607" lon="-2.50838">
        <ele>8.7</ele>
        <time>2013-09-27T14:35:30Z</time>
      </trkpt>
      <trkpt lat="48.60604" lon="-2.50849">
        <ele>9.2</ele>
        <time>2013-09-27T14:35:40Z</time>
      </trkpt>
      <trkpt lat="48.60599" lon="-2.5086">
        <ele>9.3</ele>
        <time>2013-09-27T14:35:50Z</time>
      </trkpt>
      <trkpt lat="48.60595" lon="-2.5087">
        <ele>9.4</ele>
        <time>2013-09-27T14:36:00Z</time>
      </trkpt>
      <trkpt lat="48.6059" lon="-2.50881">
        <ele>7.9</ele>
        <time>2013-09-27T14:36:10Z</time>
      </trkpt>
      <trkpt lat="48.60589" lon="-2.50882">
        <ele>7.2</ele>
        <time>2013-09-27T14:36:11Z</time>
      </trkpt>
      <trkpt lat="48.60583" lon="-2.50905">
        <ele>8.6</ele>
        <time>2013-09-27T14:36:28Z</time>
      </trkpt>
      <trkpt lat="48.60579" lon="-2.50917">
        <ele>9.2</ele>
        <time>2013-09-27T14:36:38Z</time>
      </trkpt>
      <trkpt lat="48.60575" lon="-2.50928">
        <ele>9.6</ele>
        <time>2013-09-27T14:36:47Z</time>
      </trkpt>
      <trkpt lat="48.60571" lon="-2.5094">
        <ele>9.9</ele>
        <time>2013-09-27T14:36:57Z</time>
      </trkpt>
      <trkpt lat="48.60567" lon="-2.50951">
        <ele>9.7</ele>
        <time>2013-09-27T14:37:06Z</time>
      </trkpt>
      <trkpt lat="48.60563" lon="-2.50963">
        <ele>7.6</ele>
        <time>2013-09-27T14:37:16Z</time>
      </trkpt>
      <trkpt lat="48.60562" lon="-2.50964">
        <ele>6.8</ele>
        <time>2013-09-27T14:37:17Z</time>
      </trkpt>
      <trkpt lat="48.60555" lon="-2.50985">
        <ele>9.1</ele>
        <time>2013-09-27T14:37:35Z</time>
      </trkpt>
      <trkpt lat="48.60552" lon="-2.50998">
        <ele>10.2</ele>
        <time>2013-09-27T14:37:45Z</time>
      </trkpt>
      <trkpt lat="48.60548" lon="-2.5101">
        <ele>8.7</ele>
        <time>2013-09-27T14:37:55Z</time>
      </trkpt>
      <trkpt lat="48.60546" lon="-2.51022">
        <ele>8.6</ele>
        <time>2013-09-27T14:38:04Z</time>
      </trkpt>
      <trkpt lat="48.60543" lon="-2.51034">
        <ele>8.7</ele>
        <time>2013-09-27T14:38:13Z</time>
      </trkpt>
      <trkpt lat="48.60538" lon="-2.51044">
        <ele>9</ele>
        <time>2013-09-27T14:38:23Z</time>
      </trkpt>
      <trkpt lat="48.60538" lon="-2.51046">
        <ele>8.9</ele>
        <time>2013-09-27T14:38:24Z</time>
      </trkpt>
      <trkpt lat="48.60531" lon="-2.51067">
        <ele>9</ele>
        <time>2013-09-27T14:38:43Z</time>
      </trkpt>
      <trkpt lat="48.60529" lon="-2.51079">
        <ele>7.9</ele>
        <time>2013-09-27T14:38:52Z</time>
      </trkpt>
      <trkpt lat="48.60526" lon="-2.51091">
        <ele>10.5</ele>
        <time>2013-09-27T14:39:01Z</time>
      </trkpt>
      <trkpt lat="48.60522" lon="-2.51103">
        <ele>9.5</ele>
        <time>2013-09-27T14:39:11Z</time>
      </trkpt>
      <trkpt lat="48.60518" lon="-2.51114">
        <ele>10</ele>
        <time>2013-09-27T14:39:21Z</time>
      </trkpt>
      <trkpt lat="48.60514" lon="-2.51126">
        <ele>9.9</ele>
        <time>2013-09-27T14:39:31Z</time>
      </trkpt>
      <trkpt lat="48.60514" lon="-2.51127">
        <ele>10</ele>
        <time>2013-09-27T14:39:32Z</time>
      </trkpt>
      <trkpt lat="48.60508" lon="-2.51149">
        <ele>9.6</ele>
        <time>2013-09-27T14:39:50Z</time>
      </trkpt>
      <trkpt lat="48.60504" lon="-2.51161">
        <ele>10.5</ele>
        <time>2013-09-27T14:40:00Z</time>
      </trkpt>
      <trkpt lat="48.60499" lon="-2.51173">
        <ele>10.6</ele>
        <time>2013-09-27T14:40:11Z</time>
      </trkpt>
      <trkpt lat="48.60495" lon="-2.51184">
        <ele>10.2</ele>
        <time>2013-09-27T14:40:21Z</time>
      </trkpt>
      <trkpt lat="48.60491" lon="-2.51195">
        <ele>10.4</ele>
        <time>2013-09-27T14:40:30Z</time>
      </trkpt>
      <trkpt lat="48.60487" lon="-2.51207">
        <ele>9.8</ele>
        <time>2013-09-27T14:40:40Z</time>
      </trkpt>
      <trkpt lat="48.60487" lon="-2.51208">
        <ele>9.9</ele>
        <time>2013-09-27T14:40:41Z</time>
      </trkpt>
      <trkpt lat="48.60479" lon="-2.5123">
        <ele>9.7</ele>
        <time>2013-09-27T14:40:59Z</time>
      </trkpt>
      <trkpt lat="48.60474" lon="-2.51241">
        <ele>10.4</ele>
        <time>2013-09-27T14:41:08Z</time>
      </trkpt>
      <trkpt lat="48.60471" lon="-2.51253">
        <ele>8.5</ele>
        <time>2013-09-27T14:41:17Z</time>
      </trkpt>
      <trkpt lat="48.60467" lon="-2.51265">
        <ele>9.7</ele>
        <time>2013-09-27T14:41:26Z</time>
      </trkpt>
      <trkpt lat="48.60465" lon="-2.51277">
        <ele>10.4</ele>
        <time>2013-09-27T14:41:36Z</time>
      </trkpt>
      <trkpt lat="48.6046" lon="-2.51288">
        <ele>10.4</ele>
        <time>2013-09-27T14:41:46Z</time>
      </trkpt>
      <trkpt lat="48.6046" lon="-2.5129">
        <ele>10.4</ele>
        <time>2013-09-27T14:41:47Z</time>
      </trkpt>
      <trkpt lat="48.60452" lon="-2.5131">
        <ele>10.2</ele>
        <time>2013-09-27T14:42:04Z</time>
      </trkpt>
      <trkpt lat="48.60449" lon="-2.51321">
        <ele>9.8</ele>
        <time>2013-09-27T14:42:13Z</time>
      </trkpt>
      <trkpt lat="48.60445" lon="-2.51332">
        <ele>10.1</ele>
        <time>2013-09-27T14:42:22Z</time>
      </trkpt>
      <trkpt lat="48.6044" lon="-2.51343">
        <ele>9.8</ele>
        <time>2013-09-27T14:42:32Z</time>
      </trkpt>
      <trkpt lat="48.60435" lon="-2.51354">
        <ele>9.5</ele>
        <time>2013-09-27T14:42:42Z</time>
      </trkpt>
      <trkpt lat="48.60431" lon="-2.51365">
        <ele>9.9</ele>
        <time>2013-09-27T14:42:51Z</time>
      </trkpt>
      <trkpt lat="48.60431" lon="-2.51366">
        <ele>9.8</ele>
        <time>2013-09-27T14:42:52Z</time>
      </trkpt>
      <trkpt lat="48.60423" lon="-2.51388">
        <ele>10</ele>
        <time>2013-09-27T14:43:11Z</time>
      </trkpt>
      <trkpt lat="48.6042" lon="-2.51401">
        <ele>9.4</ele>
        <time>2013-09-27T14:43:21Z</time>
      </trkpt>
      <trkpt lat="48.60417" lon="-2.51412">
        <ele>9.6</ele>
        <time>2013-09-27T14:43:30Z</time>
      </trkpt>
      <trkpt lat="48.60414" lon="-2.51423">
        <ele>9.8</ele>
        <time>2013-09-27T14:43:38Z</time>
      </trkpt>
      <trkpt lat="48.6041" lon="-2.51435">
        <ele>10.4</ele>
        <time>2013-09-27T14:43:47Z</time>
      </trkpt>
      <trkpt lat="48.60408" lon="-2.51447">
        <ele>10.5</ele>
        <time>2013-09-27T14:43:56Z</time>
      </trkpt>
      <trkpt lat="48.60407" lon="-2.51448">
        <ele>10.7</ele>
        <time>2013-09-27T14:43:57Z</time>
      </trkpt>
      <trkpt lat="48.60398" lon="-2.51469">
        <ele>10.2</ele>
        <time>2013-09-27T14:44:15Z</time>
      </trkpt>
      <trkpt lat="48.60394" lon="-2.5148">
        <ele>10.9</ele>
        <time>2013-09-27T14:44:24Z</time>
      </trkpt>
      <trkpt lat="48.6039" lon="-2.51491">
        <ele>11</ele>
        <time>2013-09-27T14:44:33Z</time>
      </trkpt>
      <trkpt lat="48.60387" lon="-2.51503">
        <ele>10</ele>
        <time>2013-09-27T14:44:42Z</time>
      </trkpt>
      <trkpt lat="48.60384" lon="-2.51515">
        <ele>10.7</ele>
        <time>2013-09-27T14:44:50Z</time>
      </trkpt>
      <trkpt lat="48.60381" lon="-2.51526">
        <ele>10.2</ele>
        <time>2013-09-27T14:44:58Z</time>
      </trkpt>
      <trkpt lat="48.6038" lon="-2.51527">
        <ele>10.2</ele>
        <time>2013-09-27T14:44:59Z</time>
      </trkpt>
      <trkpt lat="48.60374" lon="-2.5155">
        <ele>10.1</ele>
        <time>2013-09-27T14:45:16Z</time>
      </trkpt>
      <trkpt lat="48.6037" lon="-2.51563">
        <ele>10</ele>
        <time>2013-09-27T14:45:25Z</time>
      </trkpt>
      <trkpt lat="48.60367" lon="-2.51575">
        <ele>9.5</ele>
        <time>2013-09-27T14:45:34Z</time>
      </trkpt>
      <trkpt lat="48.60364" lon="-2.51587">
        <ele>10.1</ele>
        <time>2013-09-27T14:45:43Z</time>
      </trkpt>
      <trkpt lat="48.6036" lon="-2.51598">
        <ele>10.4</ele>
        <time>2013-09-27T14:45:51Z</time>
      </trkpt>
      <trkpt lat="48.60357" lon="-2.5161">
        <ele>10.7</ele>
        <time>2013-09-27T14:46:00Z</time>
      </trkpt>
      <trkpt lat="48.60357" lon="-2.51612">
        <ele>10.6</ele>
        <time>2013-09-27T14:46:01Z</time>
      </trkpt>
      <trkpt lat="48.6035" lon="-2.51633">
        <ele>11</ele>
        <time>2013-09-27T14:46:17Z</time>
      </trkpt>
      <trkpt lat="48.60347" lon="-2.51646">
        <ele>10</ele>
        <time>2013-09-27T14:46:26Z</time>
      </trkpt>
      <trkpt lat="48.60344" lon="-2.51657">
        <ele>10.5</ele>
        <time>2013-09-27T14:46:35Z</time>
      </trkpt>
      <trkpt lat="48.60339" lon="-2.51668">
        <ele>10.8</ele>
        <time>2013-09-27T14:46:44Z</time>
      </trkpt>
      <trkpt lat="48.60335" lon="-2.51679">
        <ele>11.4</ele>
        <time>2013-09-27T14:46:52Z</time>
      </trkpt>
      <trkpt lat="48.60331" lon="-2.5169">
        <ele>11.4</ele>
        <time>2013-09-27T14:47:00Z</time>
      </trkpt>
      <trkpt lat="48.60331" lon="-2.51692">
        <ele>10.9</ele>
        <time>2013-09-27T14:47:01Z</time>
      </trkpt>
      <trkpt lat="48.60325" lon="-2.51713">
        <ele>10.6</ele>
        <time>2013-09-27T14:47:17Z</time>
      </trkpt>
      <trkpt lat="48.60321" lon="-2.51725">
        <ele>10.3</ele>
        <time>2013-09-27T14:47:26Z</time>
      </trkpt>
      <trkpt lat="48.60317" lon="-2.51735">
        <ele>10.1</ele>
        <time>2013-09-27T14:47:35Z</time>
      </trkpt>
      <trkpt lat="48.60313" lon="-2.51747">
        <ele>10.2</ele>
        <time>2013-09-27T14:47:43Z</time>
      </trkpt>
      <trkpt lat="48.60309" lon="-2.51758">
        <ele>10.3</ele>
        <time>2013-09-27T14:47:52Z</time>
      </trkpt>
      <trkpt lat="48.60306" lon="-2.5177">
        <ele>11</ele>
        <time>2013-09-27T14:48:01Z</time>
      </trkpt>
      <trkpt lat="48.60302" lon="-2.51781">
        <ele>11.4</ele>
        <time>2013-09-27T14:48:10Z</time>
      </trkpt>
      <trkpt lat="48.60301" lon="-2.51782">
        <ele>11.4</ele>
        <time>2013-09-27T14:48:11Z</time>
      </trkpt>
      <trkpt lat="48.60296" lon="-2.51804">
        <ele>10.1</ele>
        <time>2013-09-27T14:48:28Z</time>
      </trkpt>
      <trkpt lat="48.60292" lon="-2.51817">
        <ele>11</ele>
        <time>2013-09-27T14:48:37Z</time>
      </trkpt>
      <trkpt lat="48.60288" lon="-2.51828">
        <ele>10.2</ele>
        <time>2013-09-27T14:48:46Z</time>
      </trkpt>
      <trkpt lat="48.60285" lon="-2.5184">
        <ele>11</ele>
        <time>2013-09-27T14:48:55Z</time>
      </trkpt>
      <trkpt lat="48.6028" lon="-2.51851">
        <ele>11.7</ele>
        <time>2013-09-27T14:49:05Z</time>
      </trkpt>
      <trkpt lat="48.60276" lon="-2.51862">
        <ele>9.9</ele>
        <time>2013-09-27T14:49:14Z</time>
      </trkpt>
      <trkpt lat="48.60276" lon="-2.51864">
        <ele>9.8</ele>
        <time>2013-09-27T14:49:15Z</time>
      </trkpt>
      <trkpt lat="48.60268" lon="-2.51885">
        <ele>10.1</ele>
        <time>2013-09-27T14:49:33Z</time>
      </trkpt>
      <trkpt lat="48.60263" lon="-2.51896">
        <ele>10.3</ele>
        <time>2013-09-27T14:49:43Z</time>
      </trkpt>
      <trkpt lat="48.60262" lon="-2.51909">
        <ele>10.3</ele>
        <time>2013-09-27T14:50:10Z</time>
      </trkpt>
      <trkpt lat="48.60257" lon="-2.5192">
        <ele>10</ele>
        <time>2013-09-27T14:50:43Z</time>
      </trkpt>
      <trkpt lat="48.60256" lon="-2.51921">
        <ele>9.8</ele>
        <time>2013-09-27T14:50:44Z</time>
      </trkpt>
      <trkpt lat="48.60249" lon="-2.51944">
        <ele>10.2</ele>
        <time>2013-09-27T14:51:03Z</time>
      </trkpt>
      <trkpt lat="48.60245" lon="-2.51956">
        <ele>9.6</ele>
        <time>2013-09-27T14:51:12Z</time>
      </trkpt>
      <trkpt lat="48.60242" lon="-2.51968">
        <ele>9.4</ele>
        <time>2013-09-27T14:51:21Z</time>
      </trkpt>
      <trkpt lat="48.6024" lon="-2.5198">
        <ele>9.8</ele>
        <time>2013-09-27T14:51:30Z</time>
      </trkpt>
      <trkpt lat="48.60237" lon="-2.51992">
        <ele>10.8</ele>
        <time>2013-09-27T14:51:39Z</time>
      </trkpt>
      <trkpt lat="48.60234" lon="-2.52004">
        <ele>10.3</ele>
        <time>2013-09-27T14:51:47Z</time>
      </trkpt>
      <trkpt lat="48.60234" lon="-2.52005">
        <ele>10.1</ele>
        <time>2013-09-27T14:51:48Z</time>
      </trkpt>
      <trkpt lat="48.60228" lon="-2.52029">
        <ele>10.5</ele>
        <time>2013-09-27T14:52:05Z</time>
      </trkpt>
      <trkpt lat="48.60224" lon="-2.52041">
        <ele>10.5</ele>
        <time>2013-09-27T14:52:14Z</time>
      </trkpt>
      <trkpt lat="48.60221" lon="-2.52053">
        <ele>10.5</ele>
        <time>2013-09-27T14:52:23Z</time>
      </trkpt>
      <trkpt lat="48.60217" lon="-2.52065">
        <ele>10.3</ele>
        <time>2013-09-27T14:52:32Z</time>
      </trkpt>
      <trkpt lat="48.60212" lon="-2.52075">
        <ele>10.5</ele>
        <time>2013-09-27T14:52:45Z</time>
      </trkpt>
      <trkpt lat="48.60211" lon="-2.52088">
        <ele>10.3</ele>
        <time>2013-09-27T14:52:54Z</time>
      </trkpt>
      <trkpt lat="48.60211" lon="-2.52089">
        <ele>10.3</ele>
        <time>2013-09-27T14:52:55Z</time>
      </trkpt>
      <trkpt lat="48.60205" lon="-2.52112">
        <ele>10.8</ele>
        <time>2013-09-27T14:53:12Z</time>
      </trkpt>
      <trkpt lat="48.60201" lon="-2.52124">
        <ele>10.4</ele>
        <time>2013-09-27T14:53:21Z</time>
      </trkpt>
      <trkpt lat="48.60197" lon="-2.52135">
        <ele>10.7</ele>
        <time>2013-09-27T14:53:41Z</time>
      </trkpt>
      <trkpt lat="48.60194" lon="-2.52147">
        <ele>10.5</ele>
        <time>2013-09-27T14:53:49Z</time>
      </trkpt>
      <trkpt lat="48.60191" lon="-2.52158">
        <ele>10.5</ele>
        <time>2013-09-27T14:53:57Z</time>
      </trkpt>
      <trkpt lat="48.60191" lon="-2.5216">
        <ele>10.5</ele>
        <time>2013-09-27T14:53:58Z</time>
      </trkpt>
      <trkpt lat="48.60185" lon="-2.52183">
        <ele>10.8</ele>
        <time>2013-09-27T14:54:13Z</time>
      </trkpt>
      <trkpt lat="48.60182" lon="-2.52196">
        <ele>10.9</ele>
        <time>2013-09-27T14:54:21Z</time>
      </trkpt>
      <trkpt lat="48.60179" lon="-2.52208">
        <ele>9.2</ele>
        <time>2013-09-27T14:54:29Z</time>
      </trkpt>
      <trkpt lat="48.60177" lon="-2.5222">
        <ele>9.8</ele>
        <time>2013-09-27T14:54:37Z</time>
      </trkpt>
      <trkpt lat="48.60174" lon="-2.52231">
        <ele>10.4</ele>
        <time>2013-09-27T14:54:45Z</time>
      </trkpt>
      <trkpt lat="48.6017" lon="-2.52242">
        <ele>11.4</ele>
        <time>2013-09-27T14:54:53Z</time>
      </trkpt>
      <trkpt lat="48.60167" lon="-2.52255">
        <ele>10.8</ele>
        <time>2013-09-27T14:55:01Z</time>
      </trkpt>
      <trkpt lat="48.60167" lon="-2.52256">
        <ele>10.9</ele>
        <time>2013-09-27T14:55:02Z</time>
      </trkpt>
      <trkpt lat="48.60161" lon="-2.52279">
        <ele>10.9</ele>
        <time>2013-09-27T14:55:17Z</time>
      </trkpt>
      <trkpt lat="48.60158" lon="-2.5229">
        <ele>11.1</ele>
        <time>2013-09-27T14:55:25Z</time>
      </trkpt>
      <trkpt lat="48.60155" lon="-2.52302">
        <ele>10.9</ele>
        <time>2013-09-27T14:55:33Z</time>
      </trkpt>
      <trkpt lat="48.60152" lon="-2.52313">
        <ele>11.1</ele>
        <time>2013-09-27T14:55:41Z</time>
      </trkpt>
      <trkpt lat="48.60148" lon="-2.52323">
        <ele>11.1</ele>
        <time>2013-09-27T14:55:49Z</time>
      </trkpt>
      <trkpt lat="48.60145" lon="-2.52335">
        <ele>11.1</ele>
        <time>2013-09-27T14:55:57Z</time>
      </trkpt>
      <trkpt lat="48.60141" lon="-2.52347">
        <ele>10.5</ele>
        <time>2013-09-27T14:56:05Z</time>
      </trkpt>
      <trkpt lat="48.60141" lon="-2.52348">
        <ele>10.7</ele>
        <time>2013-09-27T14:56:06Z</time>
      </trkpt>
      <trkpt lat="48.60134" lon="-2.52369">
        <ele>10</ele>
        <time>2013-09-27T14:56:21Z</time>
      </trkpt>
      <trkpt lat="48.60129" lon="-2.52379">
        <ele>11.3</ele>
        <time>2013-09-27T14:56:29Z</time>
      </trkpt>
      <trkpt lat="48.60125" lon="-2.5239">
        <ele>11.1</ele>
        <time>2013-09-27T14:56:37Z</time>
      </trkpt>
      <trkpt lat="48.60121" lon="-2.52401">
        <ele>10.6</ele>
        <time>2013-09-27T14:56:45Z</time>
      </trkpt>
      <trkpt lat="48.60117" lon="-2.52412">
        <ele>11</ele>
        <time>2013-09-27T14:56:52Z</time>
      </trkpt>
      <trkpt lat="48.60115" lon="-2.52424">
        <ele>10.8</ele>
        <time>2013-09-27T14:56:59Z</time>
      </trkpt>
      <trkpt lat="48.60112" lon="-2.52437">
        <ele>11.1</ele>
        <time>2013-09-27T14:57:07Z</time>
      </trkpt>
      <trkpt lat="48.60112" lon="-2.52438">
        <ele>11.3</ele>
        <time>2013-09-27T14:57:08Z</time>
      </trkpt>
      <trkpt lat="48.60107" lon="-2.52461">
        <ele>11.3</ele>
        <time>2013-09-27T14:57:23Z</time>
      </trkpt>
      <trkpt lat="48.60104" lon="-2.52473">
        <ele>11.1</ele>
        <time>2013-09-27T14:57:31Z</time>
      </trkpt>
      <trkpt lat="48.60101" lon="-2.52486">
        <ele>11.4</ele>
        <time>2013-09-27T14:57:39Z</time>
      </trkpt>
      <trkpt lat="48.60099" lon="-2.52498">
        <ele>11.1</ele>
        <time>2013-09-27T14:57:47Z</time>
      </trkpt>
      <trkpt lat="48.60096" lon="-2.5251">
        <ele>10.7</ele>
        <time>2013-09-27T14:57:55Z</time>
      </trkpt>
      <trkpt lat="48.60093" lon="-2.52521">
        <ele>10.8</ele>
        <time>2013-09-27T14:58:03Z</time>
      </trkpt>
      <trkpt lat="48.60089" lon="-2.52533">
        <ele>11.4</ele>
        <time>2013-09-27T14:58:11Z</time>
      </trkpt>
      <trkpt lat="48.60089" lon="-2.52534">
        <ele>11.6</ele>
        <time>2013-09-27T14:58:12Z</time>
      </trkpt>
      <trkpt lat="48.60082" lon="-2.52556">
        <ele>12.3</ele>
        <time>2013-09-27T14:58:27Z</time>
      </trkpt>
      <trkpt lat="48.60079" lon="-2.52567">
        <ele>12</ele>
        <time>2013-09-27T14:58:34Z</time>
      </trkpt>
      <trkpt lat="48.60076" lon="-2.5258">
        <ele>11.2</ele>
        <time>2013-09-27T14:58:42Z</time>
      </trkpt>
      <trkpt lat="48.60074" lon="-2.52592">
        <ele>11.3</ele>
        <time>2013-09-27T14:58:50Z</time>
      </trkpt>
      <trkpt lat="48.60071" lon="-2.52605">
        <ele>11.3</ele>
        <time>2013-09-27T14:58:58Z</time>
      </trkpt>
      <trkpt lat="48.60068" lon="-2.52617">
        <ele>11.5</ele>
        <time>2013-09-27T14:59:06Z</time>
      </trkpt>
      <trkpt lat="48.60065" lon="-2.5263">
        <ele>10.5</ele>
        <time>2013-09-27T14:59:15Z</time>
      </trkpt>
      <trkpt lat="48.60064" lon="-2.52631">
        <ele>10.7</ele>
        <time>2013-09-27T14:59:16Z</time>
      </trkpt>
      <trkpt lat="48.60058" lon="-2.52653">
        <ele>10.2</ele>
        <time>2013-09-27T14:59:32Z</time>
      </trkpt>
      <trkpt lat="48.60055" lon="-2.52666">
        <ele>9.6</ele>
        <time>2013-09-27T14:59:40Z</time>
      </trkpt>
      <trkpt lat="48.60053" lon="-2.52679">
        <ele>10.7</ele>
        <time>2013-09-27T14:59:48Z</time>
      </trkpt>
      <trkpt lat="48.6005" lon="-2.52691">
        <ele>9.3</ele>
        <time>2013-09-27T14:59:56Z</time>
      </trkpt>
      <trkpt lat="48.60047" lon="-2.52703">
        <ele>10.9</ele>
        <time>2013-09-27T15:00:04Z</time>
      </trkpt>
      <trkpt lat="48.60044" lon="-2.52714">
        <ele>11.1</ele>
        <time>2013-09-27T15:00:11Z</time>
      </trkpt>
      <trkpt lat="48.60041" lon="-2.52726">
        <ele>10.9</ele>
        <time>2013-09-27T15:00:19Z</time>
      </trkpt>
      <trkpt lat="48.60041" lon="-2.52728">
        <ele>10.7</ele>
        <time>2013-09-27T15:00:20Z</time>
      </trkpt>
      <trkpt lat="48.60036" lon="-2.5275">
        <ele>11</ele>
        <time>2013-09-27T15:00:35Z</time>
      </trkpt>
      <trkpt lat="48.60034" lon="-2.52762">
        <ele>10.9</ele>
        <time>2013-09-27T15:00:43Z</time>
      </trkpt>
      <trkpt lat="48.6003" lon="-2.52774">
        <ele>11.4</ele>
        <time>2013-09-27T15:00:52Z</time>
      </trkpt>
      <trkpt lat="48.60027" lon="-2.52787">
        <ele>10.4</ele>
        <time>2013-09-27T15:01:01Z</time>
      </trkpt>
      <trkpt lat="48.60024" lon="-2.52799">
        <ele>10.9</ele>
        <time>2013-09-27T15:01:08Z</time>
      </trkpt>
      <trkpt lat="48.60022" lon="-2.52812">
        <ele>11.2</ele>
        <time>2013-09-27T15:01:17Z</time>
      </trkpt>
      <trkpt lat="48.6002" lon="-2.52824">
        <ele>11.3</ele>
        <time>2013-09-27T15:01:25Z</time>
      </trkpt>
      <trkpt lat="48.60019" lon="-2.52825">
        <ele>11.4</ele>
        <time>2013-09-27T15:01:26Z</time>
      </trkpt>
      <trkpt lat="48.60013" lon="-2.52847">
        <ele>11.6</ele>
        <time>2013-09-27T15:01:41Z</time>
      </trkpt>
      <trkpt lat="48.6001" lon="-2.52859">
        <ele>11</ele>
        <time>2013-09-27T15:01:49Z</time>
      </trkpt>
      <trkpt lat="48.60007" lon="-2.52871">
        <ele>10.3</ele>
        <time>2013-09-27T15:01:57Z</time>
      </trkpt>
      <trkpt lat="48.60004" lon="-2.52882">
        <ele>10.5</ele>
        <time>2013-09-27T15:02:05Z</time>
      </trkpt>
      <trkpt lat="48.60001" lon="-2.52895">
        <ele>10.9</ele>
        <time>2013-09-27T15:02:14Z</time>
      </trkpt>
      <trkpt lat="48.59997" lon="-2.52907">
        <ele>10.8</ele>
        <time>2013-09-27T15:02:23Z</time>
      </trkpt>
      <trkpt lat="48.59994" lon="-2.52919">
        <ele>10.4</ele>
        <time>2013-09-27T15:02:32Z</time>
      </trkpt>
      <trkpt lat="48.59993" lon="-2.52921">
        <ele>10.4</ele>
        <time>2013-09-27T15:02:33Z</time>
      </trkpt>
      <trkpt lat="48.59988" lon="-2.52944">
        <ele>9</ele>
        <time>2013-09-27T15:02:48Z</time>
      </trkpt>
      <trkpt lat="48.59985" lon="-2.52956">
        <ele>8.8</ele>
        <time>2013-09-27T15:03:05Z</time>
      </trkpt>
      <trkpt lat="48.59982" lon="-2.52969">
        <ele>11.9</ele>
        <time>2013-09-27T15:03:14Z</time>
      </trkpt>
      <trkpt lat="48.59979" lon="-2.5298">
        <ele>13.2</ele>
        <time>2013-09-27T15:03:22Z</time>
      </trkpt>
      <trkpt lat="48.59977" lon="-2.52993">
        <ele>11.6</ele>
        <time>2013-09-27T15:03:30Z</time>
      </trkpt>
      <trkpt lat="48.59974" lon="-2.53006">
        <ele>10.8</ele>
        <time>2013-09-27T15:03:38Z</time>
      </trkpt>
      <trkpt lat="48.59974" lon="-2.53008">
        <ele>10.6</ele>
        <time>2013-09-27T15:03:39Z</time>
      </trkpt>
      <trkpt lat="48.59969" lon="-2.53029">
        <ele>9.9</ele>
        <time>2013-09-27T15:03:52Z</time>
      </trkpt>
      <trkpt lat="48.59966" lon="-2.5304">
        <ele>10.3</ele>
        <time>2013-09-27T15:03:59Z</time>
      </trkpt>
      <trkpt lat="48.59963" lon="-2.53053">
        <ele>11.9</ele>
        <time>2013-09-27T15:04:07Z</time>
      </trkpt>
      <trkpt lat="48.5996" lon="-2.53065">
        <ele>9.5</ele>
        <time>2013-09-27T15:04:15Z</time>
      </trkpt>
      <trkpt lat="48.59957" lon="-2.53077">
        <ele>11.9</ele>
        <time>2013-09-27T15:04:22Z</time>
      </trkpt>
      <trkpt lat="48.59956" lon="-2.53088">
        <ele>12.4</ele>
        <time>2013-09-27T15:04:29Z</time>
      </trkpt>
      <trkpt lat="48.59954" lon="-2.53102">
        <ele>10.7</ele>
        <time>2013-09-27T15:04:37Z</time>
      </trkpt>
      <trkpt lat="48.59952" lon="-2.53114">
        <ele>12</ele>
        <time>2013-09-27T15:04:45Z</time>
      </trkpt>
      <trkpt lat="48.59952" lon="-2.53115">
        <ele>12.4</ele>
        <time>2013-09-27T15:04:46Z</time>
      </trkpt>
      <trkpt lat="48.59948" lon="-2.53137">
        <ele>12.5</ele>
        <time>2013-09-27T15:05:01Z</time>
      </trkpt>
      <trkpt lat="48.59945" lon="-2.5315">
        <ele>9.1</ele>
        <time>2013-09-27T15:05:09Z</time>
      </trkpt>
      <trkpt lat="48.59943" lon="-2.53162">
        <ele>12.4</ele>
        <time>2013-09-27T15:05:17Z</time>
      </trkpt>
      <trkpt lat="48.59941" lon="-2.53174">
        <ele>12.5</ele>
        <time>2013-09-27T15:05:25Z</time>
      </trkpt>
      <trkpt lat="48.59938" lon="-2.53186">
        <ele>13.6</ele>
        <time>2013-09-27T15:05:33Z</time>
      </trkpt>
      <trkpt lat="48.59936" lon="-2.53199">
        <ele>7.6</ele>
        <time>2013-09-27T15:05:41Z</time>
      </trkpt>
      <trkpt lat="48.59934" lon="-2.53211">
        <ele>10.3</ele>
        <time>2013-09-27T15:05:49Z</time>
      </trkpt>
      <trkpt lat="48.59934" lon="-2.53213">
        <ele>10.5</ele>
        <time>2013-09-27T15:05:50Z</time>
      </trkpt>
      <trkpt lat="48.59929" lon="-2.53236">
        <ele>11.3</ele>
        <time>2013-09-27T15:06:07Z</time>
      </trkpt>
      <trkpt lat="48.59927" lon="-2.53248">
        <ele>12.1</ele>
        <time>2013-09-27T15:06:15Z</time>
      </trkpt>
      <trkpt lat="48.59924" lon="-2.5326">
        <ele>10.4</ele>
        <time>2013-09-27T15:06:23Z</time>
      </trkpt>
      <trkpt lat="48.59917" lon="-2.53269">
        <ele>10.9</ele>
        <time>2013-09-27T15:06:31Z</time>
      </trkpt>
      <trkpt lat="48.5991" lon="-2.53275">
        <ele>12.2</ele>
        <time>2013-09-27T15:06:39Z</time>
      </trkpt>
      <trkpt lat="48.59902" lon="-2.5328">
        <ele>10.4</ele>
        <time>2013-09-27T15:06:47Z</time>
      </trkpt>
      <trkpt lat="48.59893" lon="-2.53285">
        <ele>12.5</ele>
        <time>2013-09-27T15:06:55Z</time>
      </trkpt>
      <trkpt lat="48.59892" lon="-2.53286">
        <ele>12.3</ele>
        <time>2013-09-27T15:06:56Z</time>
      </trkpt>
      <trkpt lat="48.59877" lon="-2.53293">
        <ele>11.8</ele>
        <time>2013-09-27T15:07:10Z</time>
      </trkpt>
      <trkpt lat="48.59869" lon="-2.53295">
        <ele>13</ele>
        <time>2013-09-27T15:07:18Z</time>
      </trkpt>
      <trkpt lat="48.5986" lon="-2.53294">
        <ele>10.3</ele>
        <time>2013-09-27T15:07:26Z</time>
      </trkpt>
      <trkpt lat="48.59852" lon="-2.53295">
        <ele>12.4</ele>
        <time>2013-09-27T15:07:34Z</time>
      </trkpt>
      <trkpt lat="48.59844" lon="-2.53297">
        <ele>13</ele>
        <time>2013-09-27T15:07:42Z</time>
      </trkpt>
      <trkpt lat="48.59836" lon="-2.53299">
        <ele>12.6</ele>
        <time>2013-09-27T15:07:50Z</time>
      </trkpt>
      <trkpt lat="48.59827" lon="-2.533">
        <ele>12.5</ele>
        <time>2013-09-27T15:07:58Z</time>
      </trkpt>
      <trkpt lat="48.59826" lon="-2.53301">
        <ele>12.6</ele>
        <time>2013-09-27T15:07:59Z</time>
      </trkpt>
      <trkpt lat="48.59822" lon="-2.53303">
        <ele>14.3</ele>
        <time>2013-09-27T15:09:59Z</time>
      </trkpt>
    </trkseg>
  </trk>
</gpx>